Observation data for Mertzon on 07/02/2020      Previous  Date  Next       Current Mesonet Observations  Soil Data  Daily Summary Page  Observations in Plain Language
KME1 020500Z 17014KT 21/21 A2998 RMK A01 T02100208  RH  099%=      5-min Rain = 0
KME1 020501Z 17012KT 21/21 A2997 RMK A01 T02090208  RH  099%=      5-min Rain = 0
KME1 020502Z 16016KT 21/21 A2997 RMK A01 T02090208  RH  099%=      5-min Rain = 0
KME1 020503Z 16016KT 21/21 A2997 RMK A01 T02090206  RH  098%=      5-min Rain = 0
KME1 020504Z 16016G21KT 21/20 A2997 RMK A01 T02090204  RH  097%=      5-min Rain = 0.01
KME1 020505Z 16014G19KT 21/20 A2997 RMK A01 T02090204  RH  096%=      5-min Rain = 0
KME1 020506Z 16013KT 21/20 A2997 RMK A01 T02100204  RH  097%=      5-min Rain = 0
KME1 020507Z 16015KT 21/20 A2997 RMK A01 T02100204  RH  096%=      5-min Rain = 0
KME1 020508Z 16016KT 21/20 A2997 RMK A01 T02100202  RH  095%=      5-min Rain = 0
KME1 020509Z 16015KT 21/20 A2997 RMK A01 T02110201  RH  094%=      5-min Rain = 0
KME1 020510Z 17014G19KT 21/20 A2997 RMK A01 T02110200  RH  093%=      5-min Rain = 0
KME1 020511Z 17015KT 21/20 A2997 RMK A01 T02120199  RH  092%=      5-min Rain = 0
KME1 020512Z 17015KT 21/20 A2997 RMK A01 T02120197  RH  091%=      5-min Rain = 0
KME1 020513Z 17016KT 21/20 A2997 RMK A01 T02130197  RH  090%=      5-min Rain = 0
KME1 020514Z 17013KT 21/20 A2997 RMK A01 T02140195  RH  089%=      5-min Rain = 0
KME1 020515Z 16014KT 22/20 A2997 RMK A01 T02150197  RH  090%=      5-min Rain = 0
KME1 020516Z 17014KT 21/20 A2997 RMK A01 T02140196  RH  089%=      5-min Rain = 0
KME1 020517Z 17011G16KT 21/20 A2998 RMK A01 T02140196  RH  089%=      5-min Rain = 0
KME1 020518Z 16012KT 22/20 A2998 RMK A01 T02150197  RH  090%=      5-min Rain = 0
KME1 020519Z 17012KT 21/20 A2998 RMK A01 T02140197  RH  090%=      5-min Rain = 0
KME1 020520Z 17010KT 21/20 A2998 RMK A01 T02140198  RH  090%=      5-min Rain = 0
KME1 020521Z 17013KT 21/20 A2998 RMK A01 T02140197  RH  090%=      5-min Rain = 0
KME1 020522Z 17015G20KT 21/19 A2998 RMK A01 T02140194  RH  088%=      5-min Rain = 0
KME1 020523Z 17012KT 22/20 A2998 RMK A01 T02150195  RH  089%=      5-min Rain = 0
KME1 020524Z 17010KT 22/20 A2998 RMK A01 T02150196  RH  089%=      5-min Rain = 0
KME1 020525Z 16009KT 22/20 A2998 RMK A01 T02150198  RH  090%=      5-min Rain = 0
KME1 020526Z 16008KT 21/20 A2998 RMK A01 T02140199  RH  091%=      5-min Rain = 0.01
KME1 020527Z 17011KT 21/20 A2998 RMK A01 T02140198  RH  091%=      5-min Rain = 0
KME1 020528Z 16009KT 21/20 A2998 RMK A01 T02130196  RH  090%=      5-min Rain = 0
KME1 020529Z 16011KT 21/20 A2998 RMK A01 T02140196  RH  090%=      5-min Rain = 0
KME1 020530Z 16010KT 21/20 A2998 RMK A01 T02140196  RH  089%=      5-min Rain = 0
KME1 020531Z 15008KT 21/20 A2998 RMK A01 T02140196  RH  090%=      5-min Rain = 0
KME1 020532Z 15008KT 21/20 A2998 RMK A01 T02140198  RH  091%=      5-min Rain = 0
KME1 020533Z 15008KT 21/20 A2998 RMK A01 T02140198  RH  091%=      5-min Rain = 0
KME1 020534Z 14006KT 21/20 A2998 RMK A01 T02130198  RH  091%=      5-min Rain = 0
KME1 020535Z 15006KT 21/20 A2998 RMK A01 T02130199  RH  091%=      5-min Rain = 0
KME1 020536Z 15006KT 21/20 A2998 RMK A01 T02130199  RH  091%=      5-min Rain = 0
KME1 020537Z 14006KT 21/20 A2998 RMK A01 T02130200  RH  092%=      5-min Rain = 0
KME1 020538Z 14005KT 21/20 A2998 RMK A01 T02130199  RH  092%=      5-min Rain = 0
KME1 020539Z 14007KT 21/20 A2998 RMK A01 T02130198  RH  091%=      5-min Rain = 0
KME1 020540Z 15007KT 21/20 A2998 RMK A01 T02130198  RH  091%=      5-min Rain = 0
KME1 020541Z 15006KT 21/20 A2998 RMK A01 T02130198  RH  091%=      5-min Rain = 0
KME1 020542Z 16007KT 21/20 A2998 RMK A01 T02130198  RH  091%=      5-min Rain = 0
KME1 020543Z 15005KT 21/20 A2998 RMK A01 T02130200  RH  092%=      5-min Rain = 0
KME1 020544Z 16005KT 21/20 A2998 RMK A01 T02120200  RH  093%=      5-min Rain = 0
KME1 020545Z 17006KT 21/20 A2998 RMK A01 T02120200  RH  093%=      5-min Rain = 0
KME1 020546Z 18005KT 21/20 A2998 RMK A01 T02120200  RH  093%=      5-min Rain = 0
KME1 020547Z 17005KT 21/20 A2998 RMK A01 T02120201  RH  093%=      5-min Rain = 0
KME1 020548Z 17004KT 21/20 A2998 RMK A01 T02120201  RH  093%=      5-min Rain = 0
KME1 020549Z 16004KT 21/20 A2998 RMK A01 T02120201  RH  093%=      5-min Rain = 0
KME1 020550Z 17006KT 21/20 A2998 RMK A01 T02120199  RH  093%=      5-min Rain = 0
KME1 020551Z 15007KT 21/20 A2998 RMK A01 T02120198  RH  092%=      5-min Rain = 0
KME1 020552Z 16005KT 21/20 A2998 RMK A01 T02120196  RH  091%=      5-min Rain = 0
KME1 020553Z 16006KT 21/20 A2998 RMK A01 T02120196  RH  090%=      5-min Rain = 0
KME1 020554Z 15006KT 21/19 A2998 RMK A01 T02120193  RH  089%=      5-min Rain = 0
KME1 020555Z 17006KT 21/19 A2998 RMK A01 T02130191  RH  088%=      5-min Rain = 0
KME1 020556Z 16007G13KT 21/19 A2998 RMK A01 T02130193  RH  088%=      5-min Rain = 0
KME1 020557Z 17007KT 21/19 A2998 RMK A01 T02130191  RH  087%=      5-min Rain = 0
KME1 020558Z 17005KT 21/19 A2998 RMK A01 T02140191  RH  087%=      5-min Rain = 0
KME1 020559Z 17007KT 21/19 A2998 RMK A01 T02140191  RH  087%=      5-min Rain = 0
KME1 020600Z 18004KT 21/19 A2998 RMK A01 T02140191  RH  087%=      5-min Rain = 0
KME1 020601Z 17005KT 21/19 A2998 RMK A01 T02140192  RH  087%=      5-min Rain = 0
KME1 020602Z 17006KT 21/19 A2998 RMK A01 T02130191  RH  087%=      5-min Rain = 0
KME1 020603Z 15006KT 21/19 A2998 RMK A01 T02130191  RH  087%=      5-min Rain = 0
KME1 020604Z 16005KT 21/19 A2998 RMK A01 T02130190  RH  087%=      5-min Rain = 0
KME1 020605Z 15005KT 21/19 A2998 RMK A01 T02130189  RH  086%=      5-min Rain = 0
KME1 020606Z 14006KT 21/19 A2998 RMK A01 T02130189  RH  086%=      5-min Rain = 0
KME1 020607Z 14007KT 21/19 A2998 RMK A01 T02130187  RH  085%=      5-min Rain = 0
KME1 020608Z 14008KT 21/19 A2998 RMK A01 T02140186  RH  084%=      5-min Rain = 0
KME1 020609Z 15006KT 21/19 A2998 RMK A01 T02140185  RH  083%=      5-min Rain = 0
KME1 020610Z 14006KT 22/19 A2998 RMK A01 T02150185  RH  083%=      5-min Rain = 0
KME1 020611Z 14005KT 22/19 A2998 RMK A01 T02150185  RH  083%=      5-min Rain = 0
KME1 020612Z 14005KT 22/19 A2998 RMK A01 T02150185  RH  083%=      5-min Rain = 0
KME1 020613Z 13006KT 22/19 A2998 RMK A01 T02150186  RH  084%=      5-min Rain = 0
KME1 020614Z 15004KT 22/19 A2998 RMK A01 T02150186  RH  084%=      5-min Rain = 0
KME1 020615Z 15006KT 21/19 A2998 RMK A01 T02140186  RH  084%=      5-min Rain = 0
KME1 020616Z 15006KT 21/19 A2997 RMK A01 T02140186  RH  084%=      5-min Rain = 0
KME1 020617Z 14006KT 21/19 A2997 RMK A01 T02140186  RH  084%=      5-min Rain = 0
KME1 020618Z 15006KT 21/19 A2997 RMK A01 T02140187  RH  084%=      5-min Rain = 0
KME1 020619Z 15008KT 21/19 A2997 RMK A01 T02140187  RH  084%=      5-min Rain = 0
KME1 020620Z 15007KT 21/19 A2997 RMK A01 T02140186  RH  084%=      5-min Rain = 0
KME1 020621Z 15008KT 21/19 A2997 RMK A01 T02140187  RH  084%=      5-min Rain = 0
KME1 020622Z 16007KT 21/19 A2997 RMK A01 T02140187  RH  084%=      5-min Rain = 0
KME1 020623Z 16009KT 21/19 A2997 RMK A01 T02140187  RH  084%=      5-min Rain = 0
KME1 020624Z 15007KT 21/19 A2997 RMK A01 T02140187  RH  084%=      5-min Rain = 0
KME1 020625Z 16007KT 21/19 A2997 RMK A01 T02140188  RH  085%=      5-min Rain = 0
KME1 020626Z 16007KT 21/19 A2997 RMK A01 T02140188  RH  085%=      5-min Rain = 0
KME1 020627Z 16007KT 21/19 A2997 RMK A01 T02140189  RH  085%=      5-min Rain = 0
KME1 020628Z 16008KT 21/19 A2997 RMK A01 T02140187  RH  085%=      5-min Rain = 0
KME1 020629Z 16010KT 21/19 A2997 RMK A01 T02140187  RH  085%=      5-min Rain = 0
KME1 020630Z 16010KT 22/19 A2997 RMK A01 T02150187  RH  084%=      5-min Rain = 0
KME1 020631Z 16007KT 22/19 A2997 RMK A01 T02150187  RH  084%=      5-min Rain = 0
KME1 020632Z 17008KT 22/19 A2997 RMK A01 T02150189  RH  085%=      5-min Rain = 0
KME1 020633Z 16010KT 22/19 A2997 RMK A01 T02150189  RH  085%=      5-min Rain = 0
KME1 020634Z 16010KT 22/19 A2997 RMK A01 T02150188  RH  084%=      5-min Rain = 0
KME1 020635Z 15009KT 22/19 A2997 RMK A01 T02150188  RH  084%=      5-min Rain = 0
KME1 020636Z 15008KT 22/19 A2996 RMK A01 T02150188  RH  084%=      5-min Rain = 0
KME1 020637Z 15011KT 22/19 A2996 RMK A01 T02150186  RH  084%=      5-min Rain = 0
KME1 020638Z 15008KT 22/19 A2996 RMK A01 T02160186  RH  083%=      5-min Rain = 0
KME1 020639Z 15010KT 22/19 A2996 RMK A01 T02160186  RH  083%=      5-min Rain = 0
KME1 020640Z 15009KT 22/19 A2996 RMK A01 T02160186  RH  083%=      5-min Rain = 0
KME1 020641Z 15008KT 22/19 A2996 RMK A01 T02160186  RH  083%=      5-min Rain = 0
KME1 020642Z 15008KT 22/19 A2996 RMK A01 T02160186  RH  083%=      5-min Rain = 0
KME1 020643Z 14007KT 22/19 A2996 RMK A01 T02160186  RH  083%=      5-min Rain = 0
KME1 020644Z 14007KT 22/19 A2996 RMK A01 T02160187  RH  084%=      5-min Rain = 0
KME1 020645Z 15005KT 22/19 A2996 RMK A01 T02150187  RH  084%=      5-min Rain = 0
KME1 020646Z 15005KT 21/19 A2996 RMK A01 T02140188  RH  085%=      5-min Rain = 0
KME1 020647Z 15006KT 21/19 A2996 RMK A01 T02140187  RH  085%=      5-min Rain = 0
KME1 020648Z 16006KT 21/19 A2996 RMK A01 T02140187  RH  085%=      5-min Rain = 0
KME1 020649Z 16006KT 21/19 A2996 RMK A01 T02140187  RH  084%=      5-min Rain = 0
KME1 020650Z 17004KT 21/19 A2996 RMK A01 T02140186  RH  084%=      5-min Rain = 0
KME1 020651Z 18004KT 21/19 A2996 RMK A01 T02140187  RH  084%=      5-min Rain = 0
KME1 020652Z 19003KT 21/19 A2996 RMK A01 T02140187  RH  084%=      5-min Rain = 0
KME1 020653Z 19003KT 21/19 A2996 RMK A01 T02140187  RH  085%=      5-min Rain = 0
KME1 020654Z 20003KT 21/19 A2996 RMK A01 T02140187  RH  085%=      5-min Rain = 0
KME1 020655Z 20003KT 21/19 A2996 RMK A01 T02140187  RH  085%=      5-min Rain = 0
KME1 020656Z 22004KT 21/19 A2996 RMK A01 T02140188  RH  085%=      5-min Rain = 0
KME1 020657Z 21005KT 21/19 A2996 RMK A01 T02140189  RH  086%=      5-min Rain = 0
KME1 020658Z 21004KT 21/19 A2996 RMK A01 T02130190  RH  087%=      5-min Rain = 0
KME1 020659Z 22005KT 21/19 A2996 RMK A01 T02120190  RH  087%=      5-min Rain = 0
KME1 020700Z 22006KT 21/19 A2996 RMK A01 T02120190  RH  087%=      5-min Rain = 0
KME1 020701Z 22006KT 21/19 A2996 RMK A01 T02110189  RH  087%=      5-min Rain = 0
KME1 020702Z 23006KT 21/19 A2996 RMK A01 T02110190  RH  087%=      5-min Rain = 0
KME1 020703Z 23006KT 21/19 A2996 RMK A01 T02110190  RH  087%=      5-min Rain = 0
KME1 020704Z 22006KT 21/19 A2996 RMK A01 T02110191  RH  088%=      5-min Rain = 0
KME1 020705Z 22006KT 21/19 A2996 RMK A01 T02110191  RH  088%=      5-min Rain = 0
KME1 020706Z 21005KT 21/19 A2996 RMK A01 T02110191  RH  089%=      5-min Rain = 0
KME1 020707Z 21005KT 21/19 A2996 RMK A01 T02100192  RH  089%=      5-min Rain = 0
KME1 020708Z 20005KT 21/19 A2996 RMK A01 T02100192  RH  090%=      5-min Rain = 0
KME1 020709Z 20005KT 21/19 A2995 RMK A01 T02100192  RH  090%=      5-min Rain = 0
KME1 020710Z 20005KT 21/19 A2995 RMK A01 T02100192  RH  089%=      5-min Rain = 0
KME1 020711Z 20005KT 21/19 A2995 RMK A01 T02100192  RH  090%=      5-min Rain = 0
KME1 020712Z 19006KT 21/19 A2996 RMK A01 T02100191  RH  089%=      5-min Rain = 0
KME1 020713Z 19005KT 21/19 A2996 RMK A01 T02100190  RH  088%=      5-min Rain = 0
KME1 020714Z 19005KT 21/19 A2996 RMK A01 T02110190  RH  088%=      5-min Rain = 0
KME1 020715Z 18005KT 21/19 A2996 RMK A01 T02110190  RH  088%=      5-min Rain = 0
KME1 020716Z 19005KT 21/19 A2995 RMK A01 T02110191  RH  088%=      5-min Rain = 0
KME1 020717Z 19005KT 21/19 A2995 RMK A01 T02110190  RH  088%=      5-min Rain = 0
KME1 020718Z 19004KT 21/19 A2995 RMK A01 T02110190  RH  088%=      5-min Rain = 0
KME1 020719Z 19004KT 21/19 A2995 RMK A01 T02110191  RH  088%=      5-min Rain = 0
KME1 020720Z 19006KT 21/19 A2995 RMK A01 T02110191  RH  089%=      5-min Rain = 0
KME1 020721Z 18006KT 21/19 A2995 RMK A01 T02110190  RH  088%=      5-min Rain = 0
KME1 020722Z 20004KT 21/19 A2995 RMK A01 T02110190  RH  088%=      5-min Rain = 0
KME1 020723Z 20004KT 21/19 A2995 RMK A01 T02110191  RH  088%=      5-min Rain = 0
KME1 020724Z 21004KT 21/19 A2995 RMK A01 T02110192  RH  089%=      5-min Rain = 0
KME1 020725Z 22005KT 21/19 A2995 RMK A01 T02100192  RH  090%=      5-min Rain = 0
KME1 020726Z 22005KT 21/19 A2995 RMK A01 T02090193  RH  090%=      5-min Rain = 0
KME1 020727Z 23006KT 21/20 A2995 RMK A01 T02090195  RH  091%=      5-min Rain = 0
KME1 020728Z 24007KT 21/20 A2995 RMK A01 T02080196  RH  093%=      5-min Rain = 0
KME1 020729Z 24009KT 21/20 A2996 RMK A01 T02080199  RH  095%=      5-min Rain = 0
KME1 020730Z 23009KT 21/20 A2996 RMK A01 T02070200  RH  096%=      5-min Rain = 0
KME1 020731Z 22009KT 21/20 A2996 RMK A01 T02060200  RH  096%=      5-min Rain = 0
KME1 020732Z 21007KT 21/20 A2996 RMK A01 T02060199  RH  096%=      5-min Rain = 0
KME1 020733Z 20006KT 21/20 A2995 RMK A01 T02060199  RH  096%=      5-min Rain = 0
KME1 020734Z 20007KT 21/20 A2995 RMK A01 T02060198  RH  095%=      5-min Rain = 0
KME1 020735Z 20008KT 21/20 A2996 RMK A01 T02060197  RH  094%=      5-min Rain = 0
KME1 020736Z 20007KT 21/20 A2995 RMK A01 T02070195  RH  093%=      5-min Rain = 0
KME1 020737Z 20007KT 21/19 A2995 RMK A01 T02080194  RH  092%=      5-min Rain = 0
KME1 020738Z 20007KT 21/19 A2995 RMK A01 T02080192  RH  091%=      5-min Rain = 0
KME1 020739Z 19008KT 21/19 A2995 RMK A01 T02090191  RH  089%=      5-min Rain = 0
KME1 020740Z 18009KT 21/19 A2995 RMK A01 T02100189  RH  088%=      5-min Rain = 0
KME1 020741Z 19007KT 21/19 A2995 RMK A01 T02120189  RH  087%=      5-min Rain = 0
KME1 020742Z 19009KT 21/19 A2995 RMK A01 T02120188  RH  086%=      5-min Rain = 0
KME1 020743Z 20008KT 21/19 A2995 RMK A01 T02130187  RH  085%=      5-min Rain = 0
KME1 020744Z 21009KT 21/19 A2995 RMK A01 T02140186  RH  084%=      5-min Rain = 0
KME1 020745Z 20007KT 21/19 A2995 RMK A01 T02140187  RH  085%=      5-min Rain = 0
KME1 020746Z 20006KT 21/19 A2995 RMK A01 T02130188  RH  085%=      5-min Rain = 0
KME1 020747Z 20006KT 21/19 A2995 RMK A01 T02130187  RH  085%=      5-min Rain = 0
KME1 020748Z 20006KT 21/19 A2995 RMK A01 T02130187  RH  085%=      5-min Rain = 0
KME1 020749Z 20006KT 21/19 A2995 RMK A01 T02130187  RH  085%=      5-min Rain = 0
KME1 020750Z 20008KT 21/19 A2995 RMK A01 T02130186  RH  085%=      5-min Rain = 0
KME1 020751Z 20006KT 21/18 A2994 RMK A01 T02130183  RH  083%=      5-min Rain = 0
KME1 020752Z 19006KT 21/18 A2994 RMK A01 T02140183  RH  082%=      5-min Rain = 0
KME1 020753Z 20006KT 22/18 A2994 RMK A01 T02150183  RH  082%=      5-min Rain = 0
KME1 020754Z 21006KT 22/18 A2994 RMK A01 T02150184  RH  082%=      5-min Rain = 0
KME1 020755Z 21007KT 22/19 A2994 RMK A01 T02150185  RH  083%=      5-min Rain = 0
KME1 020756Z 21006KT 21/19 A2994 RMK A01 T02140185  RH  083%=      5-min Rain = 0
KME1 020757Z 20007KT 21/19 A2994 RMK A01 T02140185  RH  084%=      5-min Rain = 0
KME1 020758Z 21006KT 21/19 A2994 RMK A01 T02130186  RH  084%=      5-min Rain = 0
KME1 020759Z 21006KT 21/19 A2994 RMK A01 T02120187  RH  085%=      5-min Rain = 0
KME1 020800Z 21006KT 21/19 A2994 RMK A01 T02110188  RH  086%=      5-min Rain = 0
KME1 020801Z 20006KT 21/19 A2994 RMK A01 T02110188  RH  087%=      5-min Rain = 0
KME1 020802Z 20007KT 21/19 A2994 RMK A01 T02100188  RH  087%=      5-min Rain = 0
KME1 020803Z 20006KT 21/19 A2994 RMK A01 T02100186  RH  086%=      5-min Rain = 0
KME1 020804Z 21006KT 21/19 A2994 RMK A01 T02100187  RH  086%=      5-min Rain = 0
KME1 020805Z 20007KT 21/19 A2994 RMK A01 T02100188  RH  087%=      5-min Rain = 0
KME1 020806Z 20007KT 21/19 A2994 RMK A01 T02100187  RH  087%=      5-min Rain = 0
KME1 020807Z 21008KT 21/19 A2993 RMK A01 T02100186  RH  086%=      5-min Rain = 0
KME1 020808Z 20008KT 21/19 A2993 RMK A01 T02100186  RH  086%=      5-min Rain = 0
KME1 020809Z 20008KT 21/19 A2994 RMK A01 T02100186  RH  086%=      5-min Rain = 0
KME1 020810Z 21009KT 21/19 A2994 RMK A01 T02100185  RH  085%=      5-min Rain = 0
KME1 020811Z 20009KT 21/19 A2994 RMK A01 T02110185  RH  085%=      5-min Rain = 0
KME1 020812Z 20009KT 21/19 A2994 RMK A01 T02110185  RH  085%=      5-min Rain = 0
KME1 020813Z 20010KT 21/18 A2994 RMK A01 T02110184  RH  084%=      5-min Rain = 0
KME1 020814Z 21008KT 21/18 A2994 RMK A01 T02120184  RH  084%=      5-min Rain = 0
KME1 020815Z 20009KT 21/18 A2993 RMK A01 T02130184  RH  084%=      5-min Rain = 0
KME1 020816Z 20008KT 21/18 A2993 RMK A01 T02130184  RH  084%=      5-min Rain = 0
KME1 020817Z 20008KT 21/18 A2993 RMK A01 T02130184  RH  084%=      5-min Rain = 0
KME1 020818Z 20008KT 21/18 A2993 RMK A01 T02130183  RH  083%=      5-min Rain = 0
KME1 020819Z 20008KT 21/18 A2993 RMK A01 T02140183  RH  082%=      5-min Rain = 0
KME1 020820Z 20008KT 21/18 A2993 RMK A01 T02140182  RH  082%=      5-min Rain = 0
KME1 020821Z 20007KT 21/18 A2993 RMK A01 T02140182  RH  082%=      5-min Rain = 0
KME1 020822Z 20007KT 21/18 A2993 RMK A01 T02140183  RH  082%=      5-min Rain = 0
KME1 020823Z 20007KT 21/18 A2993 RMK A01 T02140183  RH  083%=      5-min Rain = 0
KME1 020824Z 19006KT 21/18 A2993 RMK A01 T02130184  RH  083%=      5-min Rain = 0
KME1 020825Z 19006KT 21/18 A2993 RMK A01 T02130184  RH  084%=      5-min Rain = 0
KME1 020826Z 20006KT 21/18 A2994 RMK A01 T02130184  RH  084%=      5-min Rain = 0
KME1 020827Z 19008KT 21/18 A2994 RMK A01 T02130184  RH  084%=      5-min Rain = 0
KME1 020828Z 19007KT 21/18 A2994 RMK A01 T02120183  RH  083%=      5-min Rain = 0
KME1 020829Z 19007KT 21/18 A2994 RMK A01 T02130182  RH  083%=      5-min Rain = 0
KME1 020830Z 20006KT 21/18 A2994 RMK A01 T02130183  RH  083%=      5-min Rain = 0
KME1 020831Z 20007KT 21/18 A2993 RMK A01 T02130183  RH  083%=      5-min Rain = 0
KME1 020832Z 20005KT 21/18 A2993 RMK A01 T02140183  RH  083%=      5-min Rain = 0
KME1 020833Z 20005KT 21/18 A2993 RMK A01 T02140183  RH  083%=      5-min Rain = 0
KME1 020834Z 20005KT 21/18 A2993 RMK A01 T02130184  RH  083%=      5-min Rain = 0
KME1 020835Z 20005KT 21/18 A2993 RMK A01 T02130184  RH  084%=      5-min Rain = 0
KME1 020836Z 20006KT 21/19 A2993 RMK A01 T02120185  RH  084%=      5-min Rain = 0
KME1 020837Z 20006KT 21/19 A2993 RMK A01 T02110185  RH  085%=      5-min Rain = 0
KME1 020838Z 20005KT 21/19 A2993 RMK A01 T02110185  RH  085%=      5-min Rain = 0
KME1 020839Z 20005KT 21/19 A2993 RMK A01 T02110186  RH  085%=      5-min Rain = 0
KME1 020840Z 20005KT 21/19 A2993 RMK A01 T02100185  RH  086%=      5-min Rain = 0
KME1 020841Z 20005KT 21/19 A2993 RMK A01 T02100185  RH  086%=      5-min Rain = 0
KME1 020842Z 20005KT 21/18 A2993 RMK A01 T02100184  RH  085%=      5-min Rain = 0
KME1 020843Z 20005KT 21/18 A2993 RMK A01 T02100184  RH  085%=      5-min Rain = 0
KME1 020844Z 20004KT 21/18 A2993 RMK A01 T02100184  RH  085%=      5-min Rain = 0
KME1 020845Z 20005KT 21/18 A2994 RMK A01 T02100184  RH  085%=      5-min Rain = 0
KME1 020846Z 20005KT 21/18 A2993 RMK A01 T02100184  RH  085%=      5-min Rain = 0
KME1 020847Z 21005KT 21/18 A2993 RMK A01 T02100184  RH  085%=      5-min Rain = 0
KME1 020848Z 21006KT 21/18 A2993 RMK A01 T02100184  RH  085%=      5-min Rain = 0
KME1 020849Z 21006KT 21/19 A2993 RMK A01 T02100185  RH  086%=      5-min Rain = 0
KME1 020850Z 20006KT 21/19 A2993 RMK A01 T02100185  RH  086%=      5-min Rain = 0
KME1 020851Z 20006KT 21/19 A2993 RMK A01 T02100186  RH  086%=      5-min Rain = 0
KME1 020852Z 20005KT 21/19 A2993 RMK A01 T02100186  RH  086%=      5-min Rain = 0
KME1 020853Z 20006KT 21/19 A2993 RMK A01 T02100186  RH  086%=      5-min Rain = 0
KME1 020854Z 21006KT 21/19 A2993 RMK A01 T02100186  RH  086%=      5-min Rain = 0
KME1 020855Z 21006KT 21/19 A2994 RMK A01 T02090187  RH  087%=      5-min Rain = 0
KME1 020856Z 21007KT 21/19 A2994 RMK A01 T02090188  RH  088%=      5-min Rain = 0
KME1 020857Z 21006KT 21/19 A2994 RMK A01 T02080188  RH  088%=      5-min Rain = 0
KME1 020858Z 20006KT 21/19 A2994 RMK A01 T02080188  RH  088%=      5-min Rain = 0
KME1 020859Z 20007KT 21/19 A2994 RMK A01 T02080187  RH  088%=      5-min Rain = 0
KME1 020900Z 21007KT 21/19 A2994 RMK A01 T02080187  RH  088%=      5-min Rain = 0
KME1 020901Z 21005KT 21/19 A2994 RMK A01 T02090188  RH  088%=      5-min Rain = 0
KME1 020902Z 21006KT 21/19 A2994 RMK A01 T02090189  RH  088%=      5-min Rain = 0
KME1 020903Z 21005KT 21/19 A2994 RMK A01 T02090189  RH  089%=      5-min Rain = 0
KME1 020904Z 20005KT 21/19 A2994 RMK A01 T02090189  RH  089%=      5-min Rain = 0
KME1 020905Z 19005KT 21/19 A2994 RMK A01 T02080188  RH  088%=      5-min Rain = 0
KME1 020906Z 18004KT 21/19 A2993 RMK A01 T02080188  RH  088%=      5-min Rain = 0
KME1 020907Z 19004KT 21/19 A2994 RMK A01 T02090188  RH  088%=      5-min Rain = 0
KME1 020908Z 19005KT 21/19 A2994 RMK A01 T02080188  RH  088%=      5-min Rain = 0
KME1 020909Z 20005KT 21/19 A2994 RMK A01 T02090189  RH  088%=      5-min Rain = 0
KME1 020910Z 19005KT 21/19 A2994 RMK A01 T02090189  RH  088%=      5-min Rain = 0
KME1 020911Z 18005KT 21/19 A2994 RMK A01 T02090189  RH  088%=      5-min Rain = 0
KME1 020912Z 17005KT 21/19 A2994 RMK A01 T02080190  RH  089%=      5-min Rain = 0
KME1 020913Z 17006KT 21/19 A2994 RMK A01 T02090190  RH  089%=      5-min Rain = 0
KME1 020914Z 18006KT 21/19 A2994 RMK A01 T02090189  RH  089%=      5-min Rain = 0
KME1 020915Z 18005KT 21/19 A2994 RMK A01 T02080189  RH  089%=      5-min Rain = 0
KME1 020916Z 18005KT 21/19 A2994 RMK A01 T02090190  RH  089%=      5-min Rain = 0
KME1 020917Z 18004KT 21/19 A2994 RMK A01 T02090190  RH  089%=      5-min Rain = 0
KME1 020918Z 19004KT 21/19 A2994 RMK A01 T02090190  RH  089%=      5-min Rain = 0
KME1 020919Z 19003KT 21/19 A2994 RMK A01 T02090190  RH  089%=      5-min Rain = 0
KME1 020920Z 18003KT 21/19 A2994 RMK A01 T02090190  RH  089%=      5-min Rain = 0
KME1 020921Z 18003KT 21/19 A2994 RMK A01 T02090190  RH  089%=      5-min Rain = 0
KME1 020922Z 19004KT 21/19 A2994 RMK A01 T02090190  RH  089%=      5-min Rain = 0
KME1 020923Z 19004KT 21/19 A2994 RMK A01 T02090189  RH  088%=      5-min Rain = 0
KME1 020924Z 20003KT 21/19 A2994 RMK A01 T02100189  RH  088%=      5-min Rain = 0
KME1 020925Z 19004KT 21/19 A2994 RMK A01 T02100189  RH  088%=      5-min Rain = 0
KME1 020926Z 20005KT 21/19 A2994 RMK A01 T02100190  RH  088%=      5-min Rain = 0
KME1 020927Z 20005KT 21/19 A2994 RMK A01 T02090189  RH  088%=      5-min Rain = 0
KME1 020928Z 19004KT 21/19 A2994 RMK A01 T02090189  RH  088%=      5-min Rain = 0
KME1 020929Z 20004KT 21/19 A2994 RMK A01 T02090190  RH  089%=      5-min Rain = 0
KME1 020930Z 20005KT 21/19 A2994 RMK A01 T02080191  RH  090%=      5-min Rain = 0
KME1 020931Z 19004KT 21/19 A2994 RMK A01 T02080191  RH  090%=      5-min Rain = 0
KME1 020932Z 18004KT 21/19 A2994 RMK A01 T02080192  RH  091%=      5-min Rain = 0
KME1 020933Z 17004KT 21/19 A2994 RMK A01 T02070192  RH  091%=      5-min Rain = 0
KME1 020934Z 16004KT 21/19 A2994 RMK A01 T02070192  RH  091%=      5-min Rain = 0
KME1 020935Z 15004KT 21/19 A2994 RMK A01 T02070193  RH  092%=      5-min Rain = 0
KME1 020936Z 15004KT 21/19 A2994 RMK A01 T02070194  RH  092%=      5-min Rain = 0
KME1 020937Z 15003KT 21/19 A2994 RMK A01 T02070194  RH  092%=      5-min Rain = 0
KME1 020938Z 15004KT 21/19 A2995 RMK A01 T02070194  RH  092%=      5-min Rain = 0
KME1 020939Z 15004KT 21/19 A2995 RMK A01 T02070193  RH  092%=      5-min Rain = 0
KME1 020940Z 15003KT 21/19 A2995 RMK A01 T02060192  RH  092%=      5-min Rain = 0
KME1 020941Z 16002KT 21/19 A2995 RMK A01 T02070192  RH  092%=      5-min Rain = 0
KME1 020942Z 17004KT 21/19 A2995 RMK A01 T02070192  RH  091%=      5-min Rain = 0
KME1 020943Z 17002KT 21/19 A2995 RMK A01 T02070192  RH  091%=      5-min Rain = 0
KME1 020944Z 17002KT 21/19 A2995 RMK A01 T02070192  RH  091%=      5-min Rain = 0
KME1 020945Z 17002KT 21/19 A2995 RMK A01 T02070193  RH  092%=      5-min Rain = 0
KME1 020946Z 17001KT 21/19 A2995 RMK A01 T02070193  RH  092%=      5-min Rain = 0
KME1 020947Z 14001KT 21/19 A2995 RMK A01 T02060192  RH  092%=      5-min Rain = 0
KME1 020948Z 12001KT 21/19 A2995 RMK A01 T02060192  RH  092%=      5-min Rain = 0
KME1 020949Z 08001KT 21/19 A2995 RMK A01 T02060193  RH  092%=      5-min Rain = 0
KME1 020950Z 08001KT 21/19 A2995 RMK A01 T02060193  RH  092%=      5-min Rain = 0
KME1 020951Z 07001KT 21/19 A2995 RMK A01 T02050194  RH  093%=      5-min Rain = 0
KME1 020952Z 07000KT 21/19 A2995 RMK A01 T02050194  RH  093%=      5-min Rain = 0
KME1 020953Z 04001KT 20/19 A2995 RMK A01 T02040193  RH  093%=      5-min Rain = 0
KME1 020954Z 04001KT 20/19 A2995 RMK A01 T02040193  RH  093%=      5-min Rain = 0
KME1 020955Z 04001KT 20/19 A2995 RMK A01 T02040193  RH  093%=      5-min Rain = 0
KME1 020956Z 04002KT 20/19 A2995 RMK A01 T02040193  RH  093%=      5-min Rain = 0
KME1 020957Z 05002KT 20/20 A2995 RMK A01 T02040195  RH  095%=      5-min Rain = 0
KME1 020958Z 05003KT 20/20 A2995 RMK A01 T02040196  RH  095%=      5-min Rain = 0
KME1 020959Z 05003KT 20/20 A2995 RMK A01 T02040197  RH  096%=      5-min Rain = 0
KME1 021000Z 04003KT 20/20 A2995 RMK A01 T02020198  RH  097%=      5-min Rain = 0
KME1 021001Z 04003KT 20/20 A2995 RMK A01 T02010199  RH  098%=      5-min Rain = 0
KME1 021002Z 04003KT 20/20 A2995 RMK A01 T02010199  RH  099%=      5-min Rain = 0
KME1 021003Z 05003KT 20/20 A2995 RMK A01 T02000199  RH  100%=      5-min Rain = 0
KME1 021004Z 04003KT 20/20 A2995 RMK A01 T02000200  RH  100%=      5-min Rain = 0
KME1 021005Z 04002KT 20/20 A2995 RMK A01 T01990199  RH  100%=      5-min Rain = 0
KME1 021006Z 05003KT 20/20 A2995 RMK A01 T01990199  RH  100%=      5-min Rain = 0
KME1 021007Z 06001KT 20/20 A2995 RMK A01 T01990199  RH  100%=      5-min Rain = 0
KME1 021008Z 07001KT 20/20 A2995 RMK A01 T01980199  RH  100%=      5-min Rain = 0
KME1 021009Z 00000KT 20/20 A2996 RMK A01 T01980199  RH  100%=      5-min Rain = 0
KME1 021010Z 10000KT 20/20 A2996 RMK A01 T01980199  RH  100%=      5-min Rain = 0
KME1 021011Z 10000KT 20/20 A2996 RMK A01 T01980199  RH  100%=      5-min Rain = 0
KME1 021012Z 24000KT 20/20 A2996 RMK A01 T01980198  RH  100%=      5-min Rain = 0
KME1 021013Z 00000KT 20/20 A2996 RMK A01 T01980199  RH  100%=      5-min Rain = 0
KME1 021014Z 00000KT 20/20 A2996 RMK A01 T01980199  RH  100%=      5-min Rain = 0
KME1 021015Z 15000KT 20/20 A2996 RMK A01 T01990199  RH  100%=      5-min Rain = 0
KME1 021016Z 15002KT 20/20 A2996 RMK A01 T01990199  RH  100%=      5-min Rain = 0
KME1 021017Z 14001KT 20/20 A2996 RMK A01 T01980199  RH  100%=      5-min Rain = 0
KME1 021018Z 13002KT 20/20 A2996 RMK A01 T01980198  RH  100%=      5-min Rain = 0
KME1 021019Z 15002KT 20/20 A2996 RMK A01 T01980198  RH  100%=      5-min Rain = 0
KME1 021020Z 16002KT 20/20 A2996 RMK A01 T01980198  RH  100%=      5-min Rain = 0
KME1 021021Z 16002KT 20/20 A2996 RMK A01 T01970197  RH  100%=      5-min Rain = 0
KME1 021022Z 16001KT 20/20 A2996 RMK A01 T01970197  RH  100%=      5-min Rain = 0
KME1 021023Z 18001KT 20/20 A2996 RMK A01 T01970197  RH  100%=      5-min Rain = 0
KME1 021024Z 21001KT 20/20 A2996 RMK A01 T01970197  RH  100%=      5-min Rain = 0
KME1 021025Z 22002KT 20/20 A2996 RMK A01 T01970197  RH  100%=      5-min Rain = 0
KME1 021026Z 21002KT 20/20 A2996 RMK A01 T01970197  RH  100%=      5-min Rain = 0
KME1 021027Z 22002KT 20/20 A2996 RMK A01 T01970197  RH  100%=      5-min Rain = 0
KME1 021028Z 22002KT 20/20 A2996 RMK A01 T01970197  RH  100%=      5-min Rain = 0
KME1 021029Z 22001KT 20/20 A2996 RMK A01 T01970197  RH  100%=      5-min Rain = 0
KME1 021030Z 21001KT 20/20 A2996 RMK A01 T01970197  RH  100%=      5-min Rain = 0
KME1 021031Z 20001KT 20/20 A2996 RMK A01 T01970197  RH  100%=      5-min Rain = 0
KME1 021032Z 20001KT 20/20 A2996 RMK A01 T01970197  RH  100%=      5-min Rain = 0
KME1 021033Z 21001KT 20/20 A2996 RMK A01 T01970197  RH  100%=      5-min Rain = 0
KME1 021034Z 22001KT 20/20 A2996 RMK A01 T01960197  RH  100%=      5-min Rain = 0
KME1 021035Z 23001KT 20/20 A2996 RMK A01 T01960196  RH  100%=      5-min Rain = 0
KME1 021036Z 23001KT 20/20 A2996 RMK A01 T01960196  RH  100%=      5-min Rain = 0
KME1 021037Z 21001KT 20/20 A2997 RMK A01 T01960197  RH  100%=      5-min Rain = 0
KME1 021038Z 21002KT 20/20 A2997 RMK A01 T01970197  RH  100%=      5-min Rain = 0
KME1 021039Z 22002KT 20/20 A2997 RMK A01 T01960197  RH  100%=      5-min Rain = 0
KME1 021040Z 21002KT 20/20 A2997 RMK A01 T01970197  RH  100%=      5-min Rain = 0
KME1 021041Z 21003KT 20/20 A2997 RMK A01 T01970197  RH  100%=      5-min Rain = 0
KME1 021042Z 21003KT 20/20 A2997 RMK A01 T01960197  RH  100%=      5-min Rain = 0
KME1 021043Z 21003KT 20/20 A2997 RMK A01 T01960196  RH  100%=      5-min Rain = 0
KME1 021044Z 21003KT 20/20 A2997 RMK A01 T01960196  RH  100%=      5-min Rain = 0
KME1 021045Z 21003KT 20/20 A2997 RMK A01 T01960196  RH  100%=      5-min Rain = 0
KME1 021046Z 22003KT 20/20 A2997 RMK A01 T01950195  RH  100%=      5-min Rain = 0
KME1 021047Z 23003KT 20/20 A2997 RMK A01 T01950196  RH  100%=      5-min Rain = 0
KME1 021048Z 22003KT 20/20 A2997 RMK A01 T01950195  RH  100%=      5-min Rain = 0
KME1 021049Z 22003KT 20/20 A2997 RMK A01 T01950195  RH  100%=      5-min Rain = 0
KME1 021050Z 22002KT 20/20 A2997 RMK A01 T01950195  RH  100%=      5-min Rain = 0
KME1 021051Z 22002KT 19/19 A2997 RMK A01 T01940194  RH  100%=      5-min Rain = 0
KME1 021052Z 23002KT 19/19 A2997 RMK A01 T01940194  RH  100%=      5-min Rain = 0
KME1 021053Z 23002KT 19/19 A2997 RMK A01 T01940194  RH  100%=      5-min Rain = 0
KME1 021054Z 24002KT 19/19 A2997 RMK A01 T01940194  RH  100%=      5-min Rain = 0
KME1 021055Z 25002KT 19/19 A2997 RMK A01 T01940194  RH  100%=      5-min Rain = 0
KME1 021056Z 24000KT 19/19 A2997 RMK A01 T01940194  RH  100%=      5-min Rain = 0
KME1 021057Z 22000KT 19/19 A2997 RMK A01 T01940194  RH  100%=      5-min Rain = 0
KME1 021058Z 00000KT 19/19 A2997 RMK A01 T01940194  RH  100%=      5-min Rain = 0
KME1 021059Z 27000KT 19/19 A2997 RMK A01 T01940194  RH  100%=      5-min Rain = 0
KME1 021100Z 26001KT 19/19 A2997 RMK A01 T01940194  RH  100%=      5-min Rain = 0
KME1 021101Z 00000KT 20/20 A2997 RMK A01 T01950195  RH  100%=      5-min Rain = 0
KME1 021102Z 28001KT 19/20 A2997 RMK A01 T01940195  RH  100%=      5-min Rain = 0
KME1 021103Z 29002KT 19/20 A2997 RMK A01 T01940195  RH  100%=      5-min Rain = 0
KME1 021104Z 29002KT 19/19 A2997 RMK A01 T01940194  RH  100%=      5-min Rain = 0
KME1 021105Z 29001KT 19/19 A2997 RMK A01 T01940194  RH  100%=      5-min Rain = 0
KME1 021106Z 29001KT 19/19 A2997 RMK A01 T01940194  RH  100%=      5-min Rain = 0
KME1 021107Z 29001KT 19/19 A2997 RMK A01 T01940194  RH  100%=      5-min Rain = 0
KME1 021108Z 29001KT 19/19 A2997 RMK A01 T01940194  RH  100%=      5-min Rain = 0
KME1 021109Z 29002KT 19/20 A2997 RMK A01 T01940195  RH  100%=      5-min Rain = 0
KME1 021110Z 28002KT 19/19 A2997 RMK A01 T01940194  RH  100%=      5-min Rain = 0
KME1 021111Z 29001KT 19/19 A2997 RMK A01 T01940194  RH  100%=      5-min Rain = 0
KME1 021112Z 30001KT 19/19 A2997 RMK A01 T01940194  RH  100%=      5-min Rain = 0
KME1 021113Z 30000KT 19/19 A2997 RMK A01 T01940194  RH  100%=      5-min Rain = 0
KME1 021114Z 31001KT 19/19 A2997 RMK A01 T01930193  RH  100%=      5-min Rain = 0
KME1 021115Z 29000KT 19/19 A2997 RMK A01 T01930193  RH  100%=      5-min Rain = 0
KME1 021116Z 00000KT 19/19 A2997 RMK A01 T01930193  RH  100%=      5-min Rain = 0
KME1 021117Z 00000KT 19/19 A2997 RMK A01 T01930193  RH  100%=      5-min Rain = 0
KME1 021118Z 00000KT 19/19 A2997 RMK A01 T01930193  RH  100%=      5-min Rain = 0
KME1 021119Z 00000KT 19/19 A2997 RMK A01 T01930193  RH  100%=      5-min Rain = 0
KME1 021120Z 00000KT 19/19 A2997 RMK A01 T01920193  RH  100%=      5-min Rain = 0
KME1 021121Z 00000KT 19/19 A2997 RMK A01 T01920193  RH  100%=      5-min Rain = 0
KME1 021122Z 00000KT 19/19 A2997 RMK A01 T01920192  RH  100%=      5-min Rain = 0
KME1 021123Z 00000KT 19/19 A2997 RMK A01 T01920192  RH  100%=      5-min Rain = 0
KME1 021124Z 21000KT 19/19 A2997 RMK A01 T01920192  RH  100%=      5-min Rain = 0
KME1 021125Z 20001KT 19/19 A2997 RMK A01 T01920192  RH  100%=      5-min Rain = 0
KME1 021126Z 20001KT 19/19 A2997 RMK A01 T01920192  RH  100%=      5-min Rain = 0
KME1 021127Z 20001KT 19/19 A2997 RMK A01 T01920192  RH  100%=      5-min Rain = 0
KME1 021128Z 17000KT 19/19 A2997 RMK A01 T01920192  RH  100%=      5-min Rain = 0
KME1 021129Z 17001KT 19/19 A2997 RMK A01 T01920192  RH  100%=      5-min Rain = 0
KME1 021130Z 15001KT 19/19 A2997 RMK A01 T01920192  RH  100%=      5-min Rain = 0
KME1 021131Z 00000KT 19/19 A2997 RMK A01 T01920192  RH  100%=      5-min Rain = 0
KME1 021132Z 00000KT 19/19 A2997 RMK A01 T01920192  RH  100%=      5-min Rain = 0
KME1 021133Z 09000KT 19/19 A2997 RMK A01 T01920192  RH  100%=      5-min Rain = 0
KME1 021134Z 09001KT 19/19 A2997 RMK A01 T01920192  RH  100%=      5-min Rain = 0
KME1 021135Z 09000KT 19/19 A2997 RMK A01 T01910191  RH  100%=      5-min Rain = 0
KME1 021136Z 09000KT 19/19 A2997 RMK A01 T01910191  RH  100%=      5-min Rain = 0
KME1 021137Z 08001KT 19/19 A2997 RMK A01 T01910191  RH  100%=      5-min Rain = 0
KME1 021138Z 07001KT 19/19 A2997 RMK A01 T01910191  RH  100%=      5-min Rain = 0
KME1 021139Z 06001KT 19/19 A2997 RMK A01 T01910191  RH  100%=      5-min Rain = 0
KME1 021140Z 05001KT 19/19 A2997 RMK A01 T01900190  RH  100%=      5-min Rain = 0
KME1 021141Z 04001KT 19/19 A2997 RMK A01 T01900190  RH  100%=      5-min Rain = 0
KME1 021142Z 04001KT 19/19 A2997 RMK A01 T01900190  RH  100%=      5-min Rain = 0
KME1 021143Z 03001KT 19/19 A2997 RMK A01 T01900190  RH  100%=      5-min Rain = 0
KME1 021144Z 02001KT 19/19 A2998 RMK A01 T01900190  RH  100%=      5-min Rain = 0
KME1 021145Z 01001KT 19/19 A2998 RMK A01 T01900190  RH  100%=      5-min Rain = 0
KME1 021146Z 00001KT 19/19 A2998 RMK A01 T01910191  RH  100%=      5-min Rain = 0
KME1 021147Z 35001KT 19/19 A2998 RMK A01 T01910191  RH  100%=      5-min Rain = 0
KME1 021148Z 34001KT 19/19 A2998 RMK A01 T01910191  RH  100%=      5-min Rain = 0
KME1 021149Z 35001KT 19/19 A2998 RMK A01 T01910191  RH  100%=      5-min Rain = 0
KME1 021150Z 35001KT 19/19 A2998 RMK A01 T01910191  RH  100%=      5-min Rain = 0
KME1 021151Z 00001KT 19/19 A2998 RMK A01 T01910192  RH  100%=      5-min Rain = 0
KME1 021152Z 00001KT 19/19 A2998 RMK A01 T01910191  RH  100%=      5-min Rain = 0
KME1 021153Z 35002KT 19/19 A2998 RMK A01 T01910192  RH  100%=      5-min Rain = 0
KME1 021154Z 35002KT 19/19 A2998 RMK A01 T01920192  RH  100%=      5-min Rain = 0
KME1 021155Z 34001KT 19/19 A2999 RMK A01 T01920192  RH  100%=      5-min Rain = 0
KME1 021156Z 35001KT 19/19 A2999 RMK A01 T01920193  RH  100%=      5-min Rain = 0
KME1 021157Z 34001KT 19/19 A2999 RMK A01 T01930193  RH  100%=      5-min Rain = 0
KME1 021158Z 34001KT 19/19 A2999 RMK A01 T01920193  RH  100%=      5-min Rain = 0
KME1 021159Z 34002KT 19/19 A2999 RMK A01 T01930193  RH  100%=      5-min Rain = 0
KME1 021200Z 34001KT 19/19 A2999 RMK A01 T01930194  RH  100%=      5-min Rain = 0
KME1 021201Z 34001KT 19/19 A2999 RMK A01 T01930194  RH  100%=      5-min Rain = 0
KME1 021202Z 34000KT 19/19 A2999 RMK A01 T01940194  RH  100%=      5-min Rain = 0
KME1 021203Z 00000KT 19/19 A2999 RMK A01 T01940194  RH  100%=      5-min Rain = 0
KME1 021204Z 00000KT 19/20 A2999 RMK A01 T01940195  RH  100%=      5-min Rain = 0
KME1 021205Z 00000KT 19/20 A2999 RMK A01 T01940195  RH  100%=      5-min Rain = 0
KME1 021206Z 00000KT 19/20 A2999 RMK A01 T01940195  RH  100%=      5-min Rain = 0
KME1 021207Z 00000KT 20/20 A2999 RMK A01 T01950195  RH  100%=      5-min Rain = 0
KME1 021208Z 00000KT 20/20 A2999 RMK A01 T01950195  RH  100%=      5-min Rain = 0
KME1 021209Z 00000KT 20/20 A2999 RMK A01 T01950195  RH  100%=      5-min Rain = 0
KME1 021210Z 00000KT 20/20 A2999 RMK A01 T01960196  RH  100%=      5-min Rain = 0
KME1 021211Z 00000KT 20/20 A2999 RMK A01 T01960196  RH  100%=      5-min Rain = 0
KME1 021212Z 00000KT 20/20 A2999 RMK A01 T01950196  RH  100%=      5-min Rain = 0
KME1 021213Z 00000KT 20/20 A2999 RMK A01 T01960196  RH  100%=      5-min Rain = 0
KME1 021214Z 00000KT 20/20 A2999 RMK A01 T01970197  RH  100%=      5-min Rain = 0
KME1 021215Z 00000KT 20/20 A2999 RMK A01 T01970197  RH  100%=      5-min Rain = 0
KME1 021216Z 21000KT 20/20 A2999 RMK A01 T01970197  RH  100%=      5-min Rain = 0
KME1 021217Z 21000KT 20/20 A2999 RMK A01 T01980198  RH  100%=      5-min Rain = 0
KME1 021218Z 00000KT 20/20 A2999 RMK A01 T01980198  RH  100%=      5-min Rain = 0
KME1 021219Z 21001KT 20/20 A2999 RMK A01 T01980198  RH  100%=      5-min Rain = 0
KME1 021220Z 19001KT 20/20 A2999 RMK A01 T01980198  RH  100%=      5-min Rain = 0
KME1 021221Z 19001KT 20/20 A2999 RMK A01 T01980198  RH  100%=      5-min Rain = 0
KME1 021222Z 20001KT 20/20 A2999 RMK A01 T01980198  RH  100%=      5-min Rain = 0
KME1 021223Z 21002KT 20/20 A2999 RMK A01 T01990199  RH  100%=      5-min Rain = 0
KME1 021224Z 21002KT 20/20 A2999 RMK A01 T01980199  RH  100%=      5-min Rain = 0
KME1 021225Z 21002KT 20/20 A2999 RMK A01 T01980199  RH  100%=      5-min Rain = 0
KME1 021226Z 22002KT 20/20 A2999 RMK A01 T01980199  RH  100%=      5-min Rain = 0
KME1 021227Z 23002KT 20/20 A2999 RMK A01 T01990199  RH  100%=      5-min Rain = 0
KME1 021228Z 22001KT 20/20 A2999 RMK A01 T01990199  RH  100%=      5-min Rain = 0
KME1 021229Z 22001KT 20/20 A2999 RMK A01 T01990199  RH  100%=      5-min Rain = 0
KME1 021230Z 22001KT 20/20 A30 RMK A01 T01990199  RH  100%=      5-min Rain = 0
KME1 021231Z 22001KT 20/20 A30 RMK A01 T01990199  RH  100%=      5-min Rain = 0
KME1 021232Z 21001KT 20/20 A30 RMK A01 T01990199  RH  100%=      5-min Rain = 0
KME1 021233Z 21000KT 20/20 A30 RMK A01 T01990200  RH  100%=      5-min Rain = 0
KME1 021234Z 21000KT 20/20 A30 RMK A01 T02000200  RH  100%=      5-min Rain = 0
KME1 021235Z 20001KT 20/20 A30 RMK A01 T02000200  RH  100%=      5-min Rain = 0
KME1 021236Z 19001KT 20/20 A30 RMK A01 T02000200  RH  100%=      5-min Rain = 0
KME1 021237Z 20001KT 20/20 A30 RMK A01 T02000200  RH  100%=      5-min Rain = 0
KME1 021238Z 21001KT 20/20 A30 RMK A01 T02000200  RH  100%=      5-min Rain = 0
KME1 021239Z 20002KT 20/20 A30 RMK A01 T02000200  RH  100%=      5-min Rain = 0
KME1 021240Z 21002KT 20/20 A30 RMK A01 T02010201  RH  100%=      5-min Rain = 0
KME1 021241Z 21001KT 20/20 A30 RMK A01 T02010201  RH  100%=      5-min Rain = 0
KME1 021242Z 21001KT 20/20 A30 RMK A01 T02020202  RH  100%=      5-min Rain = 0
KME1 021243Z 21001KT 20/20 A30 RMK A01 T02030203  RH  100%=      5-min Rain = 0
KME1 021244Z 20002KT 20/20 A30 RMK A01 T02030203  RH  100%=      5-min Rain = 0
KME1 021245Z 20002KT 20/20 A30 RMK A01 T02030203  RH  100%=      5-min Rain = 0
KME1 021246Z 20002KT 20/20 A30 RMK A01 T02040204  RH  100%=      5-min Rain = 0
KME1 021247Z 20002KT 21/21 A30 RMK A01 T02050205  RH  100%=      5-min Rain = 0
KME1 021248Z 20001KT 21/21 A30 RMK A01 T02050206  RH  100%=      5-min Rain = 0
KME1 021249Z 21002KT 21/21 A30 RMK A01 T02060206  RH  100%=      5-min Rain = 0
KME1 021250Z 21002KT 21/21 A30 RMK A01 T02060206  RH  100%=      5-min Rain = 0
KME1 021251Z 20002KT 21/21 A30 RMK A01 T02070207  RH  100%=      5-min Rain = 0
KME1 021252Z 21002KT 21/21 A30 RMK A01 T02080208  RH  100%=      5-min Rain = 0
KME1 021253Z 20003KT 21/21 A30 RMK A01 T02090209  RH  100%=      5-min Rain = 0
KME1 021254Z 21003KT 21/21 A30 RMK A01 T02100210  RH  100%=      5-min Rain = 0
KME1 021255Z 20004KT 21/21 A30 RMK A01 T02110211  RH  100%=      5-min Rain = 0
KME1 021256Z 20003KT 21/21 A30 RMK A01 T02120212  RH  100%=      5-min Rain = 0
KME1 021257Z 20003KT 21/21 A30 RMK A01 T02140214  RH  100%=      5-min Rain = 0
KME1 021258Z 19004KT 22/22 A30 RMK A01 T02150215  RH  100%=      5-min Rain = 0
KME1 021259Z 20004KT 22/22 A30 RMK A01 T02170217  RH  100%=      5-min Rain = 0
KME1 021300Z 19005KT 22/22 A30 RMK A01 T02180216  RH  098%=      5-min Rain = 0
KME1 021301Z 19005KT 22/21 A30 RMK A01 T02190213  RH  097%=      5-min Rain = 0
KME1 021302Z 20004KT 22/21 A30 RMK A01 T02200214  RH  096%=      5-min Rain = 0
KME1 021303Z 19004KT 22/21 A30 RMK A01 T02210211  RH  094%=      5-min Rain = 0
KME1 021304Z 20005KT 22/21 A30 RMK A01 T02230212  RH  094%=      5-min Rain = 0
KME1 021305Z 20005KT 23/21 A30 RMK A01 T02250210  RH  091%=      5-min Rain = 0
KME1 021306Z 20004KT 23/21 A30 RMK A01 T02260208  RH  090%=      5-min Rain = 0
KME1 021307Z 19005KT 23/21 A30 RMK A01 T02270206  RH  088%=      5-min Rain = 0
KME1 021308Z 18005KT 23/20 A30 RMK A01 T02270204  RH  087%=      5-min Rain = 0
KME1 021309Z 18005KT 23/20 A30 RMK A01 T02280202  RH  085%=      5-min Rain = 0
KME1 021310Z 18006KT 23/20 A30 RMK A01 T02290202  RH  085%=      5-min Rain = 0
KME1 021311Z 18005KT 23/20 A30 RMK A01 T02290202  RH  085%=      5-min Rain = 0
KME1 021312Z 18007KT 23/20 A30 RMK A01 T02300203  RH  085%=      5-min Rain = 0
KME1 021313Z 18005KT 23/20 A30 RMK A01 T02310203  RH  084%=      5-min Rain = 0
KME1 021314Z 18006KT 23/20 A30 RMK A01 T02320202  RH  083%=      5-min Rain = 0
KME1 021315Z 18007KT 23/20 A30 RMK A01 T02330201  RH  082%=      5-min Rain = 0
KME1 021316Z 19007KT 23/20 A30 RMK A01 T02330199  RH  081%=      5-min Rain = 0
KME1 021317Z 19007KT 23/20 A30 RMK A01 T02330199  RH  081%=      5-min Rain = 0
KME1 021318Z 19006KT 23/20 A30 RMK A01 T02340201  RH  082%=      5-min Rain = 0
KME1 021319Z 18008KT 23/20 A30 RMK A01 T02340200  RH  081%=      5-min Rain = 0
KME1 021320Z 19007KT 23/20 A30 RMK A01 T02340198  RH  080%=      5-min Rain = 0
KME1 021321Z 18006KT 23/20 A30 RMK A01 T02340200  RH  081%=      5-min Rain = 0
KME1 021322Z 18008KT 24/20 A30 RMK A01 T02350199  RH  080%=      5-min Rain = 0
KME1 021323Z 18008KT 24/20 A30 RMK A01 T02350198  RH  079%=      5-min Rain = 0
KME1 021324Z 19007KT 24/20 A30 RMK A01 T02350197  RH  079%=      5-min Rain = 0
KME1 021325Z 18007KT 24/20 A30 RMK A01 T02350199  RH  080%=      5-min Rain = 0
KME1 021326Z 19008KT 24/20 A30 RMK A01 T02350197  RH  079%=      5-min Rain = 0
KME1 021327Z 19007KT 24/20 A30 RMK A01 T02350198  RH  080%=      5-min Rain = 0
KME1 021328Z 19006KT 24/20 A30 RMK A01 T02350201  RH  081%=      5-min Rain = 0
KME1 021329Z 19006G11KT 24/20 A30 RMK A01 T02360202  RH  081%=      5-min Rain = 0
KME1 021330Z 19009KT 24/20 A30 RMK A01 T02370198  RH  079%=      5-min Rain = 0
KME1 021331Z 19008KT 24/20 A30 RMK A01 T02370199  RH  079%=      5-min Rain = 0
KME1 021332Z 18007KT 24/20 A30 RMK A01 T02370199  RH  079%=      5-min Rain = 0
KME1 021333Z 19009KT 24/20 A30 RMK A01 T02370198  RH  079%=      5-min Rain = 0
KME1 021334Z 18006KT 24/20 A30 RMK A01 T02360199  RH  079%=      5-min Rain = 0
KME1 021335Z 20008KT 24/20 A30 RMK A01 T02370200  RH  080%=      5-min Rain = 0
KME1 021336Z 18007KT 24/20 A30 RMK A01 T02370197  RH  078%=      5-min Rain = 0
KME1 021337Z 19008KT 24/20 A30 RMK A01 T02380199  RH  079%=      5-min Rain = 0
KME1 021338Z 19007KT 24/20 A30 RMK A01 T02380199  RH  079%=      5-min Rain = 0
KME1 021339Z 18009KT 24/20 A30 RMK A01 T02380197  RH  078%=      5-min Rain = 0
KME1 021340Z 18009KT 24/20 A30 RMK A01 T02380198  RH  078%=      5-min Rain = 0
KME1 021341Z 19009KT 24/20 A30 RMK A01 T02380195  RH  077%=      5-min Rain = 0
KME1 021342Z 19006KT 24/20 A30 RMK A01 T02370197  RH  078%=      5-min Rain = 0
KME1 021343Z 19008KT 24/20 A30 RMK A01 T02370197  RH  078%=      5-min Rain = 0
KME1 021344Z 19008KT 24/20 A30 RMK A01 T02370197  RH  078%=      5-min Rain = 0
KME1 021345Z 19008KT 24/20 A30 RMK A01 T02370198  RH  079%=      5-min Rain = 0
KME1 021346Z 18007KT 24/20 A30 RMK A01 T02370200  RH  079%=      5-min Rain = 0
KME1 021347Z 18006KT 24/20 A30 RMK A01 T02380199  RH  079%=      5-min Rain = 0
KME1 021348Z 19009KT 24/20 A30 RMK A01 T02380201  RH  080%=      5-min Rain = 0
KME1 021349Z 19008KT 24/20 A30 RMK A01 T02390199  RH  078%=      5-min Rain = 0
KME1 021350Z 19007KT 24/20 A30 RMK A01 T02390200  RH  079%=      5-min Rain = 0
KME1 021351Z 19006KT 24/20 A30 RMK A01 T02390201  RH  079%=      5-min Rain = 0
KME1 021352Z 18006KT 24/20 A30 RMK A01 T02400204  RH  080%=      5-min Rain = 0
KME1 021353Z 19007KT 24/20 A30 RMK A01 T02410204  RH  079%=      5-min Rain = 0
KME1 021354Z 17005KT 24/21 A30 RMK A01 T02420205  RH  079%=      5-min Rain = 0
KME1 021355Z 18006KT 24/21 A30 RMK A01 T02430205  RH  079%=      5-min Rain = 0
KME1 021356Z 19006KT 24/21 A30 RMK A01 T02440205  RH  079%=      5-min Rain = 0
KME1 021357Z 19006KT 25/21 A30 RMK A01 T02450209  RH  080%=      5-min Rain = 0
KME1 021358Z 18006KT 25/21 A30 RMK A01 T02460207  RH  079%=      5-min Rain = 0
KME1 021359Z 18007KT 25/21 A30 RMK A01 T02460207  RH  079%=      5-min Rain = 0
KME1 021400Z 18008KT 25/21 A30 RMK A01 T02470211  RH  080%=      5-min Rain = 0
KME1 021401Z 19008KT 25/21 A30 RMK A01 T02480209  RH  079%=      5-min Rain = 0
KME1 021402Z 18008KT 25/21 A30 RMK A01 T02480208  RH  078%=      5-min Rain = 0
KME1 021403Z 18008KT 25/21 A30 RMK A01 T02480210  RH  079%=      5-min Rain = 0
KME1 021404Z 18009KT 25/21 A30 RMK A01 T02480209  RH  079%=      5-min Rain = 0
KME1 021405Z 19007KT 25/21 A30 RMK A01 T02480210  RH  080%=      5-min Rain = 0
KME1 021406Z 18006KT 25/21 A30 RMK A01 T02480210  RH  079%=      5-min Rain = 0
KME1 021407Z 19006KT 25/21 A3001 RMK A01 T02490212  RH  080%=      5-min Rain = 0
KME1 021408Z 18009KT 25/21 A3001 RMK A01 T02510213  RH  080%=      5-min Rain = 0
KME1 021409Z 18008KT 25/21 A3001 RMK A01 T02520213  RH  079%=      5-min Rain = 0
KME1 021410Z 18008KT 25/22 A3001 RMK A01 T02530216  RH  080%=      5-min Rain = 0
KME1 021411Z 18009KT 25/22 A3001 RMK A01 T02540215  RH  079%=      5-min Rain = 0
KME1 021412Z 18008KT 25/22 A3001 RMK A01 T02540215  RH  079%=      5-min Rain = 0
KME1 021413Z 18009KT 26/22 A3001 RMK A01 T02550218  RH  080%=      5-min Rain = 0
KME1 021414Z 18009KT 26/22 A3001 RMK A01 T02560218  RH  079%=      5-min Rain = 0
KME1 021415Z 18007KT 26/22 A3001 RMK A01 T02580219  RH  079%=      5-min Rain = 0
KME1 021416Z 19009KT 26/22 A3001 RMK A01 T02590218  RH  078%=      5-min Rain = 0
KME1 021417Z 20007KT 26/22 A3001 RMK A01 T02590220  RH  079%=      5-min Rain = 0
KME1 021418Z 19007KT 26/22 A3001 RMK A01 T02600220  RH  079%=      5-min Rain = 0
KME1 021419Z 18007KT 26/22 A3001 RMK A01 T02610220  RH  078%=      5-min Rain = 0
KME1 021420Z 18009KT 26/22 A3001 RMK A01 T02620220  RH  078%=      5-min Rain = 0
KME1 021421Z 18007KT 26/22 A3001 RMK A01 T02620220  RH  078%=      5-min Rain = 0
KME1 021422Z 17007KT 26/22 A3001 RMK A01 T02620222  RH  078%=      5-min Rain = 0
KME1 021423Z 20010KT 26/22 A3001 RMK A01 T02630222  RH  078%=      5-min Rain = 0
KME1 021424Z 18009KT 26/22 A3001 RMK A01 T02640222  RH  078%=      5-min Rain = 0
KME1 021425Z 19010KT 27/22 A3001 RMK A01 T02650221  RH  077%=      5-min Rain = 0
KME1 021426Z 19009KT 27/22 A3001 RMK A01 T02650220  RH  076%=      5-min Rain = 0
KME1 021427Z 17010KT 27/22 A3001 RMK A01 T02650222  RH  077%=      5-min Rain = 0
KME1 021428Z 18010KT 27/22 A3001 RMK A01 T02650222  RH  077%=      5-min Rain = 0
KME1 021429Z 18011KT 27/22 A3001 RMK A01 T02650221  RH  077%=      5-min Rain = 0
KME1 021430Z 18012KT 27/22 A3001 RMK A01 T02650219  RH  076%=      5-min Rain = 0
KME1 021431Z 18009G14KT 26/22 A3001 RMK A01 T02640221  RH  077%=      5-min Rain = 0
KME1 021432Z 19010KT 26/22 A3001 RMK A01 T02640223  RH  078%=      5-min Rain = 0
KME1 021433Z 18008KT 27/22 A3001 RMK A01 T02660223  RH  077%=      5-min Rain = 0
KME1 021434Z 18008KT 27/22 A3001 RMK A01 T02670223  RH  077%=      5-min Rain = 0
KME1 021435Z 18007KT 27/22 A3001 RMK A01 T02680223  RH  076%=      5-min Rain = 0
KME1 021436Z 20007KT 27/22 A3001 RMK A01 T02690223  RH  076%=      5-min Rain = 0
KME1 021437Z 19007KT 27/22 A3001 RMK A01 T02690222  RH  075%=      5-min Rain = 0
KME1 021438Z 19010KT 27/22 A3001 RMK A01 T02690221  RH  075%=      5-min Rain = 0
KME1 021439Z 19007KT 27/22 A3001 RMK A01 T02710224  RH  076%=      5-min Rain = 0
KME1 021440Z 18006KT 27/22 A3001 RMK A01 T02710223  RH  075%=      5-min Rain = 0
KME1 021441Z 18009KT 27/22 A3001 RMK A01 T02720223  RH  075%=      5-min Rain = 0
KME1 021442Z 17009KT 27/22 A3001 RMK A01 T02720222  RH  074%=      5-min Rain = 0
KME1 021443Z 21008KT 27/22 A3001 RMK A01 T02720220  RH  073%=      5-min Rain = 0
KME1 021444Z 20006KT 27/22 A3001 RMK A01 T02720223  RH  075%=      5-min Rain = 0
KME1 021445Z 19009KT 28/22 A3002 RMK A01 T02750224  RH  074%=      5-min Rain = 0
KME1 021446Z 18010KT 28/22 A3001 RMK A01 T02750221  RH  073%=      5-min Rain = 0
KME1 021447Z 18008KT 27/22 A3002 RMK A01 T02740222  RH  073%=      5-min Rain = 0
KME1 021448Z 19010KT 27/22 A3002 RMK A01 T02740223  RH  074%=      5-min Rain = 0
KME1 021449Z 20011KT 28/22 A3001 RMK A01 T02750221  RH  072%=      5-min Rain = 0
KME1 021450Z 18010G15KT 28/22 A3002 RMK A01 T02750223  RH  073%=      5-min Rain = 0
KME1 021451Z 18009KT 28/22 A3002 RMK A01 T02750221  RH  072%=      5-min Rain = 0
KME1 021452Z 18009KT 28/22 A3002 RMK A01 T02750220  RH  072%=      5-min Rain = 0
KME1 021453Z 19010KT 28/22 A3002 RMK A01 T02750220  RH  072%=      5-min Rain = 0
KME1 021454Z 19009KT 28/22 A3002 RMK A01 T02750221  RH  072%=      5-min Rain = 0
KME1 021455Z 18011KT 28/22 A3002 RMK A01 T02760221  RH  072%=      5-min Rain = 0
KME1 021456Z 20011KT 28/22 A3002 RMK A01 T02770220  RH  071%=      5-min Rain = 0
KME1 021457Z 19008KT 28/22 A3002 RMK A01 T02760222  RH  072%=      5-min Rain = 0
KME1 021458Z 19011KT 28/22 A3002 RMK A01 T02770221  RH  072%=      5-min Rain = 0
KME1 021459Z 20009KT 28/22 A3002 RMK A01 T02770221  RH  071%=      5-min Rain = 0
KME1 021500Z 19010KT 28/22 A3002 RMK A01 T02780222  RH  071%=      5-min Rain = 0
KME1 021501Z 19008KT 28/22 A3002 RMK A01 T02780223  RH  072%=      5-min Rain = 0
KME1 021502Z 20008KT 28/22 A3002 RMK A01 T02780222  RH  072%=      5-min Rain = 0
KME1 021503Z 19011KT 28/22 A3002 RMK A01 T02790223  RH  072%=      5-min Rain = 0
KME1 021504Z 18010KT 28/22 A3002 RMK A01 T02800222  RH  071%=      5-min Rain = 0
KME1 021505Z 17011KT 28/22 A3002 RMK A01 T02800223  RH  071%=      5-min Rain = 0
KME1 021506Z 18011KT 28/22 A3002 RMK A01 T02800222  RH  071%=      5-min Rain = 0
KME1 021507Z 18010KT 28/22 A3002 RMK A01 T02790221  RH  071%=      5-min Rain = 0
KME1 021508Z 18009KT 28/22 A3002 RMK A01 T02790222  RH  071%=      5-min Rain = 0
KME1 021509Z 18009KT 28/22 A3002 RMK A01 T02790222  RH  071%=      5-min Rain = 0
KME1 021510Z 17009KT 28/22 A3002 RMK A01 T02810223  RH  071%=      5-min Rain = 0
KME1 021511Z 18008KT 28/22 A3002 RMK A01 T02830223  RH  070%=      5-min Rain = 0
KME1 021512Z 18006KT 28/22 A3002 RMK A01 T02830224  RH  070%=      5-min Rain = 0
KME1 021513Z 19007KT 29/23 A3002 RMK A01 T02850226  RH  070%=      5-min Rain = 0
KME1 021514Z 19009KT 29/22 A3002 RMK A01 T02860223  RH  069%=      5-min Rain = 0
KME1 021515Z 18008KT 29/22 A3002 RMK A01 T02850222  RH  069%=      5-min Rain = 0
KME1 021516Z 17006KT 28/22 A3002 RMK A01 T02830222  RH  070%=      5-min Rain = 0
KME1 021517Z 18006KT 28/23 A3002 RMK A01 T02820225  RH  071%=      5-min Rain = 0
KME1 021518Z 19006KT 28/22 A3002 RMK A01 T02840224  RH  070%=      5-min Rain = 0
KME1 021519Z 16007KT 29/23 A3002 RMK A01 T02860226  RH  070%=      5-min Rain = 0
KME1 021520Z 16007KT 29/22 A3002 RMK A01 T02860224  RH  069%=      5-min Rain = 0
KME1 021521Z 16007KT 29/23 A3002 RMK A01 T02870225  RH  069%=      5-min Rain = 0
KME1 021522Z 16007KT 29/22 A3002 RMK A01 T02870224  RH  069%=      5-min Rain = 0
KME1 021523Z 17007KT 29/22 A3002 RMK A01 T02870224  RH  069%=      5-min Rain = 0
KME1 021524Z 19007KT 29/22 A3002 RMK A01 T02870221  RH  067%=      5-min Rain = 0
KME1 021525Z 18007KT 29/22 A3002 RMK A01 T02870223  RH  068%=      5-min Rain = 0
KME1 021526Z 17007KT 29/22 A3002 RMK A01 T02860224  RH  069%=      5-min Rain = 0
KME1 021527Z 17008KT 29/22 A3002 RMK A01 T02870222  RH  068%=      5-min Rain = 0
KME1 021528Z 19010G15KT 29/22 A3002 RMK A01 T02880220  RH  067%=      5-min Rain = 0
KME1 021529Z 19011KT 29/22 A3002 RMK A01 T02890217  RH  065%=      5-min Rain = 0
KME1 021530Z 19008KT 29/22 A3002 RMK A01 T02890218  RH  066%=      5-min Rain = 0
KME1 021531Z 18009KT 29/22 A3002 RMK A01 T02890219  RH  066%=      5-min Rain = 0
KME1 021532Z 19010KT 29/22 A3002 RMK A01 T02890218  RH  065%=      5-min Rain = 0
KME1 021533Z 20010KT 29/22 A3002 RMK A01 T02900217  RH  065%=      5-min Rain = 0
KME1 021534Z 17009KT 29/22 A3002 RMK A01 T02900218  RH  065%=      5-min Rain = 0
KME1 021535Z 19010KT 29/22 A3002 RMK A01 T02900216  RH  064%=      5-min Rain = 0
KME1 021536Z 18010KT 29/22 A3002 RMK A01 T02900217  RH  065%=      5-min Rain = 0
KME1 021537Z 19011KT 29/22 A3002 RMK A01 T02900216  RH  064%=      5-min Rain = 0
KME1 021538Z 18009KT 29/21 A3002 RMK A01 T02890214  RH  064%=      5-min Rain = 0
KME1 021539Z 17008G14KT 29/22 A3002 RMK A01 T02890219  RH  066%=      5-min Rain = 0
KME1 021540Z 17012KT 29/22 A3002 RMK A01 T02920217  RH  064%=      5-min Rain = 0
KME1 021541Z 17010KT 29/22 A3002 RMK A01 T02920218  RH  064%=      5-min Rain = 0
KME1 021542Z 17008KT 29/22 A3002 RMK A01 T02910217  RH  064%=      5-min Rain = 0
KME1 021543Z 16009KT 29/22 A3002 RMK A01 T02910217  RH  064%=      5-min Rain = 0
KME1 021544Z 17008KT 29/22 A3002 RMK A01 T02910217  RH  065%=      5-min Rain = 0
KME1 021545Z 17008KT 29/22 A3002 RMK A01 T02900218  RH  065%=      5-min Rain = 0
KME1 021546Z 17010KT 29/22 A3002 RMK A01 T02900215  RH  064%=      5-min Rain = 0
KME1 021547Z 18009KT 29/21 A3002 RMK A01 T02890214  RH  064%=      5-min Rain = 0
KME1 021548Z 17009KT 29/22 A3002 RMK A01 T02880216  RH  065%=      5-min Rain = 0
KME1 021549Z 18007KT 29/22 A3002 RMK A01 T02900215  RH  064%=      5-min Rain = 0
KME1 021550Z 19007KT 29/22 A3002 RMK A01 T02900217  RH  065%=      5-min Rain = 0
KME1 021551Z 19009KT 29/22 A3002 RMK A01 T02920215  RH  063%=      5-min Rain = 0
KME1 021552Z 19010KT 29/22 A3002 RMK A01 T02920216  RH  064%=      5-min Rain = 0
KME1 021553Z 18009KT 29/22 A3002 RMK A01 T02910216  RH  064%=      5-min Rain = 0
KME1 021554Z 18009KT 29/22 A3003 RMK A01 T02910217  RH  064%=      5-min Rain = 0
KME1 021555Z 18011KT 29/22 A3003 RMK A01 T02910217  RH  064%=      5-min Rain = 0
KME1 021556Z 19010KT 29/22 A3003 RMK A01 T02920215  RH  063%=      5-min Rain = 0
KME1 021557Z 21007KT 29/22 A3003 RMK A01 T02910215  RH  064%=      5-min Rain = 0
KME1 021558Z 20006KT 29/22 A3003 RMK A01 T02890217  RH  065%=      5-min Rain = 0
KME1 021559Z 20006KT 29/22 A3003 RMK A01 T02900216  RH  064%=      5-min Rain = 0
KME1 021600Z 20004KT 29/22 A3003 RMK A01 T02910216  RH  064%=      5-min Rain = 0
KME1 021601Z 19008KT 29/22 A3003 RMK A01 T02920217  RH  064%=      5-min Rain = 0
KME1 021602Z 18011KT 29/22 A3003 RMK A01 T02930215  RH  063%=      5-min Rain = 0
KME1 021603Z 17010KT 29/22 A3003 RMK A01 T02920217  RH  064%=      5-min Rain = 0
KME1 021604Z 18011KT 29/22 A3003 RMK A01 T02920216  RH  064%=      5-min Rain = 0
KME1 021605Z 17008KT 29/22 A3003 RMK A01 T02920216  RH  064%=      5-min Rain = 0
KME1 021606Z 17008KT 29/22 A3003 RMK A01 T02910215  RH  064%=      5-min Rain = 0
KME1 021607Z 17007KT 29/22 A3003 RMK A01 T02900216  RH  064%=      5-min Rain = 0
KME1 021608Z 17006KT 29/22 A3003 RMK A01 T02900216  RH  064%=      5-min Rain = 0
KME1 021609Z 18006KT 29/22 A3003 RMK A01 T02910217  RH  064%=      5-min Rain = 0
KME1 021610Z 17007KT 29/22 A3003 RMK A01 T02930219  RH  064%=      5-min Rain = 0
KME1 021611Z 18008KT 30/22 A3003 RMK A01 T02960218  RH  063%=      5-min Rain = 0
KME1 021612Z 20008KT 30/22 A3003 RMK A01 T02960216  RH  062%=      5-min Rain = 0
KME1 021613Z 19007KT 30/22 A3003 RMK A01 T02960216  RH  062%=      5-min Rain = 0
KME1 021614Z 19007KT 30/22 A3003 RMK A01 T02960217  RH  063%=      5-min Rain = 0
KME1 021615Z 19007KT 30/22 A3003 RMK A01 T02960217  RH  063%=      5-min Rain = 0
KME1 021616Z 19008KT 30/22 A3003 RMK A01 T02980217  RH  062%=      5-min Rain = 0
KME1 021617Z 20009KT 30/22 A3003 RMK A01 T02970215  RH  061%=      5-min Rain = 0
KME1 021618Z 20008KT 30/22 A3003 RMK A01 T02960215  RH  061%=      5-min Rain = 0
KME1 021619Z 19007KT 30/22 A3003 RMK A01 T02960215  RH  062%=      5-min Rain = 0
KME1 021620Z 17006KT 30/22 A3003 RMK A01 T02960216  RH  062%=      5-min Rain = 0
KME1 021621Z 16008KT 30/22 A3003 RMK A01 T02960217  RH  063%=      5-min Rain = 0
KME1 021622Z 17009KT 30/22 A3003 RMK A01 T02970216  RH  062%=      5-min Rain = 0
KME1 021623Z 16008KT 30/22 A3003 RMK A01 T02990218  RH  062%=      5-min Rain = 0
KME1 021624Z 16008KT 30/22 A3003 RMK A01 T03000215  RH  060%=      5-min Rain = 0
KME1 021625Z 18008KT 30/22 A3003 RMK A01 T03000217  RH  061%=      5-min Rain = 0
KME1 021626Z 18008KT 30/22 A3003 RMK A01 T03000216  RH  061%=      5-min Rain = 0
KME1 021627Z 18008KT 30/22 A3003 RMK A01 T03000215  RH  060%=      5-min Rain = 0
KME1 021628Z 19008KT 30/22 A3003 RMK A01 T03000217  RH  061%=      5-min Rain = 0
KME1 021629Z 17010KT 30/22 A3003 RMK A01 T03020216  RH  060%=      5-min Rain = 0
KME1 021630Z 17009KT 30/22 A3003 RMK A01 T03030218  RH  060%=      5-min Rain = 0
KME1 021631Z 17007KT 30/22 A3003 RMK A01 T03030216  RH  060%=      5-min Rain = 0
KME1 021632Z 18006KT 30/22 A3003 RMK A01 T03030221  RH  061%=      5-min Rain = 0
KME1 021633Z 17007KT 31/22 A3003 RMK A01 T03050218  RH  060%=      5-min Rain = 0
KME1 021634Z 16004KT 31/22 A3003 RMK A01 T03060219  RH  060%=      5-min Rain = 0
KME1 021635Z 17004KT 31/22 A3003 RMK A01 T03070218  RH  059%=      5-min Rain = 0
KME1 021636Z 18006KT 31/22 A3003 RMK A01 T03080222  RH  060%=      5-min Rain = 0
KME1 021637Z 17007KT 31/22 A3003 RMK A01 T03090219  RH  059%=      5-min Rain = 0
KME1 021638Z 18007KT 31/22 A3003 RMK A01 T03090222  RH  060%=      5-min Rain = 0
KME1 021639Z 17006KT 31/22 A3003 RMK A01 T03090223  RH  060%=      5-min Rain = 0
KME1 021640Z 17005KT 31/22 A3003 RMK A01 T03110220  RH  058%=      5-min Rain = 0
KME1 021641Z 15008KT 31/22 A3003 RMK A01 T03110222  RH  059%=      5-min Rain = 0
KME1 021642Z 13009KT 31/22 A3003 RMK A01 T03110220  RH  059%=      5-min Rain = 0
KME1 021643Z 10007KT 31/22 A3003 RMK A01 T03080218  RH  059%=      5-min Rain = 0
KME1 021644Z 16007G14KT 31/22 A3003 RMK A01 T03060221  RH  061%=      5-min Rain = 0
KME1 021645Z 18012KT 31/22 A3003 RMK A01 T03080221  RH  060%=      5-min Rain = 0
KME1 021646Z 18012KT 31/22 A3003 RMK A01 T03070219  RH  059%=      5-min Rain = 0
KME1 021647Z 17010KT 30/22 A3003 RMK A01 T03040218  RH  060%=      5-min Rain = 0
KME1 021648Z 18008KT 30/22 A3003 RMK A01 T03030220  RH  061%=      5-min Rain = 0
KME1 021649Z 18007KT 30/22 A3003 RMK A01 T03030221  RH  062%=      5-min Rain = 0
KME1 021650Z 18007KT 30/22 A3003 RMK A01 T03040221  RH  061%=      5-min Rain = 0
KME1 021651Z 19009KT 31/22 A3003 RMK A01 T03050221  RH  061%=      5-min Rain = 0
KME1 021652Z 19009KT 31/22 A3003 RMK A01 T03050219  RH  060%=      5-min Rain = 0
KME1 021653Z 17007KT 30/22 A3004 RMK A01 T03040219  RH  061%=      5-min Rain = 0
KME1 021654Z 18007KT 31/22 A3004 RMK A01 T03050224  RH  062%=      5-min Rain = 0
KME1 021655Z 18008KT 31/22 A3003 RMK A01 T03080222  RH  060%=      5-min Rain = 0
KME1 021656Z 16008KT 31/22 A3003 RMK A01 T03080221  RH  060%=      5-min Rain = 0
KME1 021657Z 16006KT 31/22 A3003 RMK A01 T03060224  RH  061%=      5-min Rain = 0
KME1 021658Z 18005KT 31/22 A3003 RMK A01 T03060224  RH  062%=      5-min Rain = 0
KME1 021659Z 15007KT 31/23 A3003 RMK A01 T03050225  RH  062%=      5-min Rain = 0
KME1 021700Z 17008KT 31/23 A3003 RMK A01 T03050226  RH  063%=      5-min Rain = 0
KME1 021701Z 15011KT 31/23 A3003 RMK A01 T03080226  RH  062%=      5-min Rain = 0
KME1 021702Z 16010KT 31/23 A3003 RMK A01 T03100229  RH  062%=      5-min Rain = 0
KME1 021703Z 16009KT 31/23 A3003 RMK A01 T03140228  RH  060%=      5-min Rain = 0
KME1 021704Z 16008KT 32/23 A3003 RMK A01 T03150229  RH  060%=      5-min Rain = 0
KME1 021705Z 16009KT 32/23 A3003 RMK A01 T03160226  RH  059%=      5-min Rain = 0
KME1 021706Z 15009KT 32/23 A3003 RMK A01 T03150226  RH  059%=      5-min Rain = 0
KME1 021707Z 15007KT 31/22 A3003 RMK A01 T03140222  RH  058%=      5-min Rain = 0
KME1 021708Z 15005KT 31/22 A3003 RMK A01 T03110219  RH  058%=      5-min Rain = 0
KME1 021709Z 15006KT 31/22 A3003 RMK A01 T03080222  RH  060%=      5-min Rain = 0
KME1 021710Z 15008KT 31/23 A3003 RMK A01 T03070225  RH  062%=      5-min Rain = 0
KME1 021711Z 14009KT 31/23 A3003 RMK A01 T03110227  RH  061%=      5-min Rain = 0
KME1 021712Z 13009KT 31/22 A3003 RMK A01 T03120223  RH  059%=      5-min Rain = 0
KME1 021713Z 13008KT 31/22 A3003 RMK A01 T03110222  RH  059%=      5-min Rain = 0
KME1 021714Z 15008KT 31/22 A3003 RMK A01 T03100224  RH  060%=      5-min Rain = 0
KME1 021715Z 17008KT 31/22 A3003 RMK A01 T03100220  RH  059%=      5-min Rain = 0
KME1 021716Z 16007KT 31/23 A3003 RMK A01 T03120226  RH  060%=      5-min Rain = 0
KME1 021717Z 15007KT 31/23 A3003 RMK A01 T03130226  RH  060%=      5-min Rain = 0
KME1 021718Z 15007KT 31/23 A3003 RMK A01 T03110226  RH  061%=      5-min Rain = 0
KME1 021719Z 16009KT 31/23 A3003 RMK A01 T03090226  RH  062%=      5-min Rain = 0
KME1 021720Z 17010KT 31/22 A3003 RMK A01 T03080223  RH  060%=      5-min Rain = 0
KME1 021721Z 18007KT 31/22 A3003 RMK A01 T03090221  RH  060%=      5-min Rain = 0
KME1 021722Z 18009KT 31/22 A3003 RMK A01 T03100223  RH  060%=      5-min Rain = 0
KME1 021723Z 18008KT 31/22 A3003 RMK A01 T03110222  RH  059%=      5-min Rain = 0
KME1 021724Z 16009KT 31/22 A3003 RMK A01 T03110223  RH  060%=      5-min Rain = 0
KME1 021725Z 15009KT 31/22 A3003 RMK A01 T03100224  RH  060%=      5-min Rain = 0
KME1 021726Z 17008KT 31/22 A3003 RMK A01 T03090220  RH  059%=      5-min Rain = 0
KME1 021727Z 17009KT 31/22 A3003 RMK A01 T03060220  RH  060%=      5-min Rain = 0
KME1 021728Z 17009KT 31/22 A3003 RMK A01 T03060220  RH  060%=      5-min Rain = 0
KME1 021729Z 18010KT 31/22 A3003 RMK A01 T03090220  RH  059%=      5-min Rain = 0
KME1 021730Z 18010KT 31/22 A3003 RMK A01 T03100219  RH  059%=      5-min Rain = 0
KME1 021731Z 19007KT 31/22 A3003 RMK A01 T03100218  RH  058%=      5-min Rain = 0
KME1 021732Z 18006KT 31/22 A3003 RMK A01 T03130222  RH  059%=      5-min Rain = 0
KME1 021733Z 18008KT 32/22 A3003 RMK A01 T03170224  RH  058%=      5-min Rain = 0
KME1 021734Z 18006KT 32/22 A3003 RMK A01 T03190220  RH  056%=      5-min Rain = 0
KME1 021735Z 16009KT 32/22 A3003 RMK A01 T03190220  RH  056%=      5-min Rain = 0
KME1 021736Z 15008KT 32/22 A3003 RMK A01 T03190223  RH  057%=      5-min Rain = 0
KME1 021737Z 18008KT 32/22 A3003 RMK A01 T03210222  RH  056%=      5-min Rain = 0
KME1 021738Z 19010KT 32/22 A3003 RMK A01 T03220221  RH  055%=      5-min Rain = 0
KME1 021739Z 19011KT 32/22 A3003 RMK A01 T03190220  RH  056%=      5-min Rain = 0
KME1 021740Z 19011KT 32/22 A3003 RMK A01 T03170217  RH  055%=      5-min Rain = 0
KME1 021741Z 18011KT 32/22 A3003 RMK A01 T03170215  RH  055%=      5-min Rain = 0
KME1 021742Z 18010KT 32/21 A3003 RMK A01 T03160213  RH  054%=      5-min Rain = 0
KME1 021743Z 20009KT 31/21 A3003 RMK A01 T03140212  RH  055%=      5-min Rain = 0
KME1 021744Z 19008KT 31/22 A3003 RMK A01 T03140215  RH  056%=      5-min Rain = 0
KME1 021745Z 18007KT 32/22 A3003 RMK A01 T03160217  RH  056%=      5-min Rain = 0
KME1 021746Z 16007KT 32/22 A3003 RMK A01 T03180220  RH  056%=      5-min Rain = 0
KME1 021747Z 14011KT 32/22 A3003 RMK A01 T03210223  RH  056%=      5-min Rain = 0
KME1 021748Z 16013KT 32/22 A3003 RMK A01 T03210220  RH  055%=      5-min Rain = 0
KME1 021749Z 17009KT 32/22 A3003 RMK A01 T03170219  RH  056%=      5-min Rain = 0
KME1 021750Z 18011KT 32/22 A3003 RMK A01 T03150221  RH  057%=      5-min Rain = 0
KME1 021751Z 18011KT 32/22 A3003 RMK A01 T03170219  RH  056%=      5-min Rain = 0
KME1 021752Z 17009KT 32/22 A3003 RMK A01 T03180221  RH  056%=      5-min Rain = 0
KME1 021753Z 16012KT 32/22 A3003 RMK A01 T03200217  RH  055%=      5-min Rain = 0
KME1 021754Z 15010KT 32/22 A3003 RMK A01 T03190215  RH  054%=      5-min Rain = 0
KME1 021755Z 15012KT 32/21 A3002 RMK A01 T03190214  RH  054%=      5-min Rain = 0
KME1 021756Z 16008KT 32/22 A3002 RMK A01 T03190219  RH  056%=      5-min Rain = 0
KME1 021757Z 16011KT 32/22 A3002 RMK A01 T03230221  RH  055%=      5-min Rain = 0
KME1 021758Z 16007G12KT 33/22 A3002 RMK A01 T03250217  RH  053%=      5-min Rain = 0
KME1 021759Z 16008KT 33/22 A3002 RMK A01 T03250216  RH  053%=      5-min Rain = 0
KME1 021800Z 15009KT 33/22 A3002 RMK A01 T03250219  RH  054%=      5-min Rain = 0
KME1 021801Z 16010KT 33/22 A3002 RMK A01 T03250216  RH  053%=      5-min Rain = 0
KME1 021802Z 19010KT 32/22 A3002 RMK A01 T03230218  RH  054%=      5-min Rain = 0
KME1 021803Z 19010KT 32/22 A3002 RMK A01 T03220219  RH  055%=      5-min Rain = 0
KME1 021804Z 20008KT 32/22 A3002 RMK A01 T03200218  RH  055%=      5-min Rain = 0
KME1 021805Z 19009KT 32/21 A3002 RMK A01 T03160214  RH  055%=      5-min Rain = 0
KME1 021806Z 19009KT 31/22 A3002 RMK A01 T03130215  RH  056%=      5-min Rain = 0
KME1 021807Z 20009KT 31/22 A3002 RMK A01 T03120216  RH  057%=      5-min Rain = 0
KME1 021808Z 21007KT 32/22 A3002 RMK A01 T03160217  RH  056%=      5-min Rain = 0
KME1 021809Z 19008KT 32/22 A3002 RMK A01 T03210218  RH  054%=      5-min Rain = 0
KME1 021810Z 19007KT 32/22 A3002 RMK A01 T03220217  RH  054%=      5-min Rain = 0
KME1 021811Z 20007KT 32/22 A3002 RMK A01 T03220217  RH  054%=      5-min Rain = 0
KME1 021812Z 19006KT 32/22 A3002 RMK A01 T03240222  RH  055%=      5-min Rain = 0
KME1 021813Z 20007KT 33/22 A3002 RMK A01 T03260221  RH  054%=      5-min Rain = 0
KME1 021814Z 18008KT 33/22 A3002 RMK A01 T03250219  RH  053%=      5-min Rain = 0
KME1 021815Z 21005KT 32/22 A3002 RMK A01 T03210218  RH  054%=      5-min Rain = 0
KME1 021816Z 19007KT 32/22 A3002 RMK A01 T03200217  RH  055%=      5-min Rain = 0
KME1 021817Z 16009KT 32/22 A3002 RMK A01 T03210215  RH  054%=      5-min Rain = 0
KME1 021818Z 16011KT 32/21 A3002 RMK A01 T03240213  RH  052%=      5-min Rain = 0
KME1 021819Z 16008KT 33/21 A3002 RMK A01 T03260210  RH  050%=      5-min Rain = 0
KME1 021820Z 17007KT 33/21 A3002 RMK A01 T03250210  RH  051%=      5-min Rain = 0
KME1 021821Z 17009KT 33/21 A3002 RMK A01 T03250207  RH  050%=      5-min Rain = 0
KME1 021822Z 17010KT 33/21 A3002 RMK A01 T03250209  RH  050%=      5-min Rain = 0
KME1 021823Z 17010KT 32/21 A3002 RMK A01 T03220212  RH  052%=      5-min Rain = 0
KME1 021824Z 17007KT 32/21 A3002 RMK A01 T03170214  RH  054%=      5-min Rain = 0
KME1 021825Z 18006KT 32/22 A3002 RMK A01 T03170215  RH  055%=      5-min Rain = 0
KME1 021826Z 16008KT 32/22 A3002 RMK A01 T03180215  RH  055%=      5-min Rain = 0
KME1 021827Z 16009KT 32/22 A3002 RMK A01 T03210216  RH  054%=      5-min Rain = 0
KME1 021828Z 16010KT 32/22 A3001 RMK A01 T03240217  RH  053%=      5-min Rain = 0
KME1 021829Z 16006KT 33/22 A3002 RMK A01 T03270215  RH  052%=      5-min Rain = 0
KME1 021830Z 17006KT 33/22 A3002 RMK A01 T03270216  RH  052%=      5-min Rain = 0
KME1 021831Z 19006KT 33/22 A3002 RMK A01 T03270217  RH  053%=      5-min Rain = 0
KME1 021832Z 19010KT 33/22 A3001 RMK A01 T03260218  RH  053%=      5-min Rain = 0
KME1 021833Z 19011KT 33/22 A3001 RMK A01 T03260219  RH  053%=      5-min Rain = 0
KME1 021834Z 19011KT 33/22 A3001 RMK A01 T03260218  RH  053%=      5-min Rain = 0
KME1 021835Z 18008KT 33/22 A3001 RMK A01 T03250220  RH  054%=      5-min Rain = 0
KME1 021836Z 20009KT 33/22 A3001 RMK A01 T03260219  RH  053%=      5-min Rain = 0
KME1 021837Z 22008KT 33/22 A3001 RMK A01 T03270217  RH  052%=      5-min Rain = 0
KME1 021838Z 21006KT 33/22 A3001 RMK A01 T03250216  RH  053%=      5-min Rain = 0
KME1 021839Z 19008KT 32/22 A3001 RMK A01 T03240217  RH  053%=      5-min Rain = 0
KME1 021840Z 19011KT 33/22 A3001 RMK A01 T03250219  RH  054%=      5-min Rain = 0
KME1 021841Z 20010KT 33/22 A3001 RMK A01 T03260216  RH  052%=      5-min Rain = 0
KME1 021842Z 20008KT 33/22 A3001 RMK A01 T03260216  RH  052%=      5-min Rain = 0
KME1 021843Z 19008KT 33/22 A3001 RMK A01 T03270217  RH  052%=      5-min Rain = 0
KME1 021844Z 18008G13KT 33/22 A3001 RMK A01 T03280216  RH  052%=      5-min Rain = 0
KME1 021845Z 17010KT 33/21 A3001 RMK A01 T03290213  RH  051%=      5-min Rain = 0
KME1 021846Z 17006KT 33/21 A3001 RMK A01 T03250213  RH  052%=      5-min Rain = 0
KME1 021847Z 18008KT 32/22 A3001 RMK A01 T03220215  RH  053%=      5-min Rain = 0
KME1 021848Z 19010KT 32/22 A3001 RMK A01 T03230216  RH  053%=      5-min Rain = 0
KME1 021849Z 19010KT 32/22 A3001 RMK A01 T03240218  RH  053%=      5-min Rain = 0
KME1 021850Z 18009KT 33/22 A3001 RMK A01 T03250219  RH  054%=      5-min Rain = 0
KME1 021851Z 17008KT 33/22 A3001 RMK A01 T03270218  RH  053%=      5-min Rain = 0
KME1 021852Z 17008KT 33/22 A3001 RMK A01 T03260217  RH  053%=      5-min Rain = 0
KME1 021853Z 18007KT 32/21 A3001 RMK A01 T03200214  RH  053%=      5-min Rain = 0
KME1 021854Z 19008G13KT 32/21 A3001 RMK A01 T03160213  RH  055%=      5-min Rain = 0
KME1 021855Z 19009KT 32/21 A3001 RMK A01 T03150213  RH  055%=      5-min Rain = 0
KME1 021856Z 17009KT 32/21 A3001 RMK A01 T03180213  RH  054%=      5-min Rain = 0
KME1 021857Z 17009KT 32/22 A3001 RMK A01 T03220215  RH  053%=      5-min Rain = 0
KME1 021858Z 17008KT 33/21 A3001 RMK A01 T03260213  RH  052%=      5-min Rain = 0
KME1 021859Z 16007KT 33/21 A3001 RMK A01 T03250214  RH  052%=      5-min Rain = 0
KME1 021900Z 19004KT 33/22 A3001 RMK A01 T03260215  RH  052%=      5-min Rain = 0
KME1 021901Z 20007KT 33/22 A3001 RMK A01 T03290217  RH  052%=      5-min Rain = 0
KME1 021902Z 20007KT 33/22 A30 RMK A01 T03330219  RH  051%=      5-min Rain = 0
KME1 021903Z 18007KT 34/21 A30 RMK A01 T03360214  RH  049%=      5-min Rain = 0
KME1 021904Z 20008KT 33/21 A30 RMK A01 T03330214  RH  050%=      5-min Rain = 0
KME1 021905Z 21007KT 33/22 A30 RMK A01 T03310215  RH  051%=      5-min Rain = 0
KME1 021906Z 21011KT 33/21 A30 RMK A01 T03330214  RH  050%=      5-min Rain = 0
KME1 021907Z 20009KT 33/21 A30 RMK A01 T03330210  RH  049%=      5-min Rain = 0
KME1 021908Z 19008KT 33/21 A30 RMK A01 T03300210  RH  049%=      5-min Rain = 0
KME1 021909Z 19006KT 33/21 A30 RMK A01 T03290210  RH  050%=      5-min Rain = 0
KME1 021910Z 17007KT 33/21 A30 RMK A01 T03280211  RH  050%=      5-min Rain = 0
KME1 021911Z 18009KT 33/21 A30 RMK A01 T03320207  RH  048%=      5-min Rain = 0
KME1 021912Z 19008KT 33/20 A30 RMK A01 T03340202  RH  046%=      5-min Rain = 0
KME1 021913Z 20007KT 33/20 A30 RMK A01 T03340201  RH  046%=      5-min Rain = 0
KME1 021914Z 18007KT 33/20 A30 RMK A01 T03320198  RH  045%=      5-min Rain = 0
KME1 021915Z 15009KT 33/20 A30 RMK A01 T03310196  RH  045%=      5-min Rain = 0
KME1 021916Z 16007KT 33/20 A30 RMK A01 T03300199  RH  046%=      5-min Rain = 0
KME1 021917Z 17007KT 33/20 A30 RMK A01 T03320203  RH  047%=      5-min Rain = 0
KME1 021918Z 19009KT 33/20 A30 RMK A01 T03340202  RH  046%=      5-min Rain = 0
KME1 021919Z 18008KT 34/20 A30 RMK A01 T03350203  RH  046%=      5-min Rain = 0
KME1 021920Z 15010KT 33/20 A30 RMK A01 T03340199  RH  045%=      5-min Rain = 0
KME1 021921Z 15010KT 34/20 A30 RMK A01 T03350202  RH  046%=      5-min Rain = 0
KME1 021922Z 14008KT 34/19 A30 RMK A01 T03350194  RH  043%=      5-min Rain = 0
KME1 021923Z 16010KT 33/20 A30 RMK A01 T03320195  RH  044%=      5-min Rain = 0
KME1 021924Z 16009KT 33/19 A30 RMK A01 T03310192  RH  044%=      5-min Rain = 0
KME1 021925Z 17011KT 33/19 A30 RMK A01 T03310193  RH  044%=      5-min Rain = 0
KME1 021926Z 15010KT 33/20 A30 RMK A01 T03310195  RH  045%=      5-min Rain = 0
KME1 021927Z 16008KT 33/20 A30 RMK A01 T03320195  RH  044%=      5-min Rain = 0
KME1 021928Z 17009G15KT 33/20 A30 RMK A01 T03330197  RH  045%=      5-min Rain = 0
KME1 021929Z 15012KT 33/20 A30 RMK A01 T03340197  RH  044%=      5-min Rain = 0
KME1 021930Z 16009KT 34/19 A2999 RMK A01 T03350192  RH  043%=      5-min Rain = 0
KME1 021931Z 15009KT 34/20 A2999 RMK A01 T03360200  RH  045%=      5-min Rain = 0
KME1 021932Z 17007KT 34/20 A2999 RMK A01 T03380202  RH  045%=      5-min Rain = 0
KME1 021933Z 19009KT 34/20 A2999 RMK A01 T03400203  RH  045%=      5-min Rain = 0
KME1 021934Z 18009KT 34/20 A2999 RMK A01 T03410200  RH  044%=      5-min Rain = 0
KME1 021935Z 18008KT 34/20 A2999 RMK A01 T03390199  RH  044%=      5-min Rain = 0
KME1 021936Z 18010KT 34/20 A2999 RMK A01 T03370197  RH  044%=      5-min Rain = 0
KME1 021937Z 19009KT 34/19 A2999 RMK A01 T03360193  RH  043%=      5-min Rain = 0
KME1 021938Z 19008G13KT 34/19 A2999 RMK A01 T03350193  RH  043%=      5-min Rain = 0
KME1 021939Z 19012KT 34/19 A2999 RMK A01 T03360190  RH  042%=      5-min Rain = 0
KME1 021940Z 19011KT 34/19 A2999 RMK A01 T03360189  RH  042%=      5-min Rain = 0
KME1 021941Z 15010KT 33/19 A2999 RMK A01 T03340189  RH  042%=      5-min Rain = 0
KME1 021942Z 14008KT 34/19 A2999 RMK A01 T03350187  RH  042%=      5-min Rain = 0
KME1 021943Z 16008KT 34/18 A2999 RMK A01 T03350183  RH  040%=      5-min Rain = 0
KME1 021944Z 14006KT 33/18 A2999 RMK A01 T03340181  RH  040%=      5-min Rain = 0
KME1 021945Z 15005KT 33/19 A2999 RMK A01 T03330185  RH  042%=      5-min Rain = 0
KME1 021946Z 17008KT 34/19 A2999 RMK A01 T03350187  RH  042%=      5-min Rain = 0
KME1 021947Z 19008KT 34/19 A2999 RMK A01 T03390192  RH  042%=      5-min Rain = 0
KME1 021948Z 20009KT 34/19 A2999 RMK A01 T03410188  RH  041%=      5-min Rain = 0
KME1 021949Z 18007KT 34/19 A2999 RMK A01 T03410191  RH  041%=      5-min Rain = 0
KME1 021950Z 19011KT 34/19 A2999 RMK A01 T03440191  RH  041%=      5-min Rain = 0
KME1 021951Z 18009KT 34/19 A2999 RMK A01 T03430191  RH  041%=      5-min Rain = 0
KME1 021952Z 17009KT 34/19 A2999 RMK A01 T03420189  RH  041%=      5-min Rain = 0
KME1 021953Z 17006KT 34/19 A2999 RMK A01 T03390187  RH  041%=      5-min Rain = 0
KME1 021954Z 17007G12KT 34/19 A2999 RMK A01 T03380187  RH  041%=      5-min Rain = 0
KME1 021955Z 15008KT 34/19 A2999 RMK A01 T03370191  RH  042%=      5-min Rain = 0
KME1 021956Z 16010KT 34/19 A2999 RMK A01 T03380192  RH  042%=      5-min Rain = 0
KME1 021957Z 17008KT 34/19 A2999 RMK A01 T03380191  RH  042%=      5-min Rain = 0
KME1 021958Z 19007KT 34/19 A2999 RMK A01 T03390193  RH  042%=      5-min Rain = 0
KME1 021959Z 18007KT 34/19 A2998 RMK A01 T03390192  RH  042%=      5-min Rain = 0
KME1 022000Z 17010KT 34/20 A2999 RMK A01 T03390196  RH  043%=      5-min Rain = 0
KME1 022001Z 19011KT 34/20 A2999 RMK A01 T03420198  RH  043%=      5-min Rain = 0
KME1 022002Z 20012KT 34/20 A2999 RMK A01 T03440195  RH  042%=      5-min Rain = 0
KME1 022003Z 18010KT 35/20 A2999 RMK A01 T03450195  RH  041%=      5-min Rain = 0
KME1 022004Z 18007KT 34/20 A2999 RMK A01 T03440196  RH  042%=      5-min Rain = 0
KME1 022005Z 17005KT 34/20 A2999 RMK A01 T03440195  RH  042%=      5-min Rain = 0
KME1 022006Z 18009KT 34/20 A2999 RMK A01 T03430200  RH  043%=      5-min Rain = 0
KME1 022007Z 18010KT 35/20 A2999 RMK A01 T03450195  RH  041%=      5-min Rain = 0
KME1 022008Z 18007KT 35/19 A2999 RMK A01 T03450193  RH  041%=      5-min Rain = 0
KME1 022009Z 18007KT 34/19 A2999 RMK A01 T03440194  RH  041%=      5-min Rain = 0
KME1 022010Z 17009KT 34/20 A2999 RMK A01 T03440198  RH  042%=      5-min Rain = 0
KME1 022011Z 16010KT 35/20 A2999 RMK A01 T03450201  RH  043%=      5-min Rain = 0
KME1 022012Z 15012KT 35/20 A2999 RMK A01 T03450201  RH  043%=      5-min Rain = 0
KME1 022013Z 16010G15KT 34/20 A2999 RMK A01 T03430200  RH  043%=      5-min Rain = 0
KME1 022014Z 16008KT 34/20 A2999 RMK A01 T03410201  RH  044%=      5-min Rain = 0
KME1 022015Z 16009KT 34/20 A2999 RMK A01 T03410196  RH  043%=      5-min Rain = 0
KME1 022016Z 18009KT 34/20 A2998 RMK A01 T03410197  RH  043%=      5-min Rain = 0
KME1 022017Z 17008KT 34/20 A2998 RMK A01 T03410197  RH  043%=      5-min Rain = 0
KME1 022018Z 17008KT 34/20 A2998 RMK A01 T03400196  RH  043%=      5-min Rain = 0
KME1 022019Z 19010KT 34/20 A2998 RMK A01 T03390197  RH  043%=      5-min Rain = 0
KME1 022020Z 19011KT 34/20 A2998 RMK A01 T03390196  RH  043%=      5-min Rain = 0
KME1 022021Z 19009KT 34/20 A2998 RMK A01 T03400195  RH  043%=      5-min Rain = 0
KME1 022022Z 17006KT 34/20 A2998 RMK A01 T03410197  RH  043%=      5-min Rain = 0
KME1 022023Z 19007KT 34/20 A2998 RMK A01 T03440200  RH  043%=      5-min Rain = 0
KME1 022024Z 18007KT 35/20 A2998 RMK A01 T03450195  RH  041%=      5-min Rain = 0
KME1 022025Z 19003KT 34/20 A2998 RMK A01 T03430199  RH  043%=      5-min Rain = 0
KME1 022026Z 21006KT 35/21 A2998 RMK A01 T03470205  RH  044%=      5-min Rain = 0
KME1 022027Z 18010KT 35/20 A2998 RMK A01 T03510202  RH  042%=      5-min Rain = 0
KME1 022028Z 15011G17KT 35/20 A2998 RMK A01 T03510195  RH  040%=      5-min Rain = 0
KME1 022029Z 15011KT 35/19 A2998 RMK A01 T03460191  RH  040%=      5-min Rain = 0
KME1 022030Z 17007KT 35/19 A2998 RMK A01 T03460189  RH  040%=      5-min Rain = 0
KME1 022031Z 17009KT 35/19 A2998 RMK A01 T03480189  RH  039%=      5-min Rain = 0
KME1 022032Z 16011KT 35/19 A2998 RMK A01 T03480187  RH  039%=      5-min Rain = 0
KME1 022033Z 16014KT 35/18 A2998 RMK A01 T03460184  RH  038%=      5-min Rain = 0
KME1 022034Z 16014KT 35/18 A2998 RMK A01 T03460181  RH  038%=      5-min Rain = 0
KME1 022035Z 16013KT 35/18 A2998 RMK A01 T03460175  RH  036%=      5-min Rain = 0
KME1 022036Z 16012KT 35/18 A2998 RMK A01 T03460176  RH  037%=      5-min Rain = 0
KME1 022037Z 17009KT 35/18 A2998 RMK A01 T03460182  RH  038%=      5-min Rain = 0
KME1 022038Z 18010KT 35/18 A2998 RMK A01 T03470184  RH  038%=      5-min Rain = 0
KME1 022039Z 17009KT 35/18 A2998 RMK A01 T03470183  RH  038%=      5-min Rain = 0
KME1 022040Z 17011KT 35/19 A2998 RMK A01 T03490188  RH  039%=      5-min Rain = 0
KME1 022041Z 16009KT 35/18 A2998 RMK A01 T03510184  RH  037%=      5-min Rain = 0
KME1 022042Z 17007KT 35/18 A2998 RMK A01 T03500182  RH  037%=      5-min Rain = 0
KME1 022043Z 18008KT 35/18 A2998 RMK A01 T03470181  RH  037%=      5-min Rain = 0
KME1 022044Z 18006KT 35/19 A2998 RMK A01 T03460187  RH  039%=      5-min Rain = 0
KME1 022045Z 20008KT 35/19 A2998 RMK A01 T03500186  RH  038%=      5-min Rain = 0
KME1 022046Z 18007KT 35/18 A2998 RMK A01 T03510182  RH  037%=      5-min Rain = 0
KME1 022047Z 20007KT 35/18 A2998 RMK A01 T03490184  RH  038%=      5-min Rain = 0
KME1 022048Z 19009KT 35/18 A2998 RMK A01 T03480179  RH  037%=      5-min Rain = 0
KME1 022049Z 18008KT 35/18 A2998 RMK A01 T03470182  RH  038%=      5-min Rain = 0
KME1 022050Z 18010G15KT 35/19 A2998 RMK A01 T03470185  RH  038%=      5-min Rain = 0
KME1 022051Z 16013KT 35/19 A2998 RMK A01 T03500185  RH  038%=      5-min Rain = 0
KME1 022052Z 14012KT 35/18 A2998 RMK A01 T03480183  RH  038%=      5-min Rain = 0
KME1 022053Z 15011KT 35/19 A2998 RMK A01 T03470190  RH  040%=      5-min Rain = 0
KME1 022054Z 16012KT 35/20 A2998 RMK A01 T03500195  RH  040%=      5-min Rain = 0
KME1 022055Z 15012KT 35/19 A2998 RMK A01 T03520190  RH  039%=      5-min Rain = 0
KME1 022056Z 16011KT 35/19 A2998 RMK A01 T03490192  RH  040%=      5-min Rain = 0
KME1 022057Z 17012KT 35/19 A2998 RMK A01 T03480193  RH  040%=      5-min Rain = 0
KME1 022058Z 16009KT 35/19 A2998 RMK A01 T03480191  RH  040%=      5-min Rain = 0
KME1 022059Z 16009KT 35/19 A2998 RMK A01 T03490189  RH  039%=      5-min Rain = 0
KME1 022100Z 15010KT 35/19 A2998 RMK A01 T03480187  RH  039%=      5-min Rain = 0
KME1 022101Z 17009KT 35/19 A2997 RMK A01 T03480186  RH  038%=      5-min Rain = 0
KME1 022102Z 17007KT 35/19 A2997 RMK A01 T03480190  RH  039%=      5-min Rain = 0
KME1 022103Z 18008KT 35/19 A2997 RMK A01 T03490190  RH  039%=      5-min Rain = 0
KME1 022104Z 17008KT 35/19 A2997 RMK A01 T03480192  RH  040%=      5-min Rain = 0
KME1 022105Z 18006KT 35/19 A2997 RMK A01 T03480194  RH  040%=      5-min Rain = 0
KME1 022106Z 17007KT 35/20 A2997 RMK A01 T03490195  RH  040%=      5-min Rain = 0
KME1 022107Z 16010KT 35/20 A2997 RMK A01 T03490198  RH  041%=      5-min Rain = 0
KME1 022108Z 14010KT 35/20 A2997 RMK A01 T03500199  RH  041%=      5-min Rain = 0
KME1 022109Z 15009KT 35/20 A2997 RMK A01 T03500199  RH  041%=      5-min Rain = 0
KME1 022110Z 16010KT 35/20 A2997 RMK A01 T03470198  RH  042%=      5-min Rain = 0
KME1 022111Z 17010KT 34/19 A2997 RMK A01 T03440194  RH  041%=      5-min Rain = 0
KME1 022112Z 19010KT 34/20 A2997 RMK A01 T03440196  RH  042%=      5-min Rain = 0
KME1 022113Z 18009KT 35/19 A2997 RMK A01 T03450190  RH  040%=      5-min Rain = 0
KME1 022114Z 17007KT 35/19 A2997 RMK A01 T03450191  RH  040%=      5-min Rain = 0
KME1 022115Z 16011KT 35/19 A2997 RMK A01 T03460190  RH  040%=      5-min Rain = 0
KME1 022116Z 15008KT 35/19 A2997 RMK A01 T03470191  RH  040%=      5-min Rain = 0
KME1 022117Z 16007KT 35/19 A2997 RMK A01 T03460187  RH  039%=      5-min Rain = 0
KME1 022118Z 17008KT 35/19 A2997 RMK A01 T03450188  RH  040%=      5-min Rain = 0
KME1 022119Z 16004KT 34/19 A2997 RMK A01 T03440187  RH  040%=      5-min Rain = 0
KME1 022120Z 18007KT 34/19 A2997 RMK A01 T03430189  RH  040%=      5-min Rain = 0
KME1 022121Z 16008KT 35/19 A2997 RMK A01 T03450190  RH  040%=      5-min Rain = 0
KME1 022122Z 17008KT 35/18 A2997 RMK A01 T03480184  RH  038%=      5-min Rain = 0
KME1 022123Z 17008KT 35/18 A2997 RMK A01 T03490184  RH  038%=      5-min Rain = 0
KME1 022124Z 19009KT 35/18 A2997 RMK A01 T03520181  RH  036%=      5-min Rain = 0
KME1 022125Z 17008KT 35/18 A2996 RMK A01 T03520178  RH  036%=      5-min Rain = 0
KME1 022126Z 18007KT 35/18 A2996 RMK A01 T03530177  RH  035%=      5-min Rain = 0
KME1 022127Z 19008G13KT 35/18 A2996 RMK A01 T03530182  RH  036%=      5-min Rain = 0
KME1 022128Z 17013KT 36/19 A2996 RMK A01 T03550185  RH  037%=      5-min Rain = 0
KME1 022129Z 16010KT 36/19 A2996 RMK A01 T03560189  RH  038%=      5-min Rain = 0
KME1 022130Z 13009KT 36/19 A2996 RMK A01 T03560190  RH  038%=      5-min Rain = 0
KME1 022131Z 14009KT 36/18 A2996 RMK A01 T03570184  RH  036%=      5-min Rain = 0
KME1 022132Z 15010KT 36/19 A2996 RMK A01 T03550189  RH  038%=      5-min Rain = 0
KME1 022133Z 13008KT 35/19 A2996 RMK A01 T03530186  RH  038%=      5-min Rain = 0
KME1 022134Z 15009KT 35/19 A2996 RMK A01 T03470187  RH  039%=      5-min Rain = 0
KME1 022135Z 17010KT 34/19 A2996 RMK A01 T03430190  RH  041%=      5-min Rain = 0
KME1 022136Z 15011KT 34/19 A2996 RMK A01 T03400191  RH  041%=      5-min Rain = 0
KME1 022137Z 15012KT 34/19 A2996 RMK A01 T03380190  RH  042%=      5-min Rain = 0
KME1 022138Z 15010KT 34/19 A2996 RMK A01 T03350191  RH  043%=      5-min Rain = 0
KME1 022139Z 15008KT 33/19 A2996 RMK A01 T03340192  RH  043%=      5-min Rain = 0
KME1 022140Z 16007KT 34/20 A2996 RMK A01 T03350196  RH  044%=      5-min Rain = 0
KME1 022141Z 16008KT 34/20 A2996 RMK A01 T03390196  RH  043%=      5-min Rain = 0
KME1 022142Z 15009KT 34/20 A2996 RMK A01 T03430195  RH  042%=      5-min Rain = 0
KME1 022143Z 17010KT 35/19 A2996 RMK A01 T03460193  RH  041%=      5-min Rain = 0
KME1 022144Z 19012KT 35/19 A2996 RMK A01 T03470192  RH  040%=      5-min Rain = 0
KME1 022145Z 19010KT 35/19 A2996 RMK A01 T03470191  RH  040%=      5-min Rain = 0
KME1 022146Z 19011KT 35/19 A2996 RMK A01 T03470191  RH  040%=      5-min Rain = 0
KME1 022147Z 18017KT 35/19 A2996 RMK A01 T03460190  RH  040%=      5-min Rain = 0
KME1 022148Z 17014KT 35/19 A2996 RMK A01 T03450189  RH  040%=      5-min Rain = 0
KME1 022149Z 18012KT 34/19 A2996 RMK A01 T03440191  RH  040%=      5-min Rain = 0
KME1 022150Z 18011KT 35/19 A2996 RMK A01 T03450189  RH  040%=      5-min Rain = 0
KME1 022151Z 18010KT 35/19 A2996 RMK A01 T03450190  RH  040%=      5-min Rain = 0
KME1 022152Z 16011KT 35/19 A2996 RMK A01 T03460188  RH  039%=      5-min Rain = 0
KME1 022153Z 15012G17KT 35/19 A2996 RMK A01 T03480188  RH  039%=      5-min Rain = 0
KME1 022154Z 16014KT 35/19 A2996 RMK A01 T03490186  RH  038%=      5-min Rain = 0
KME1 022155Z 16011KT 35/19 A2996 RMK A01 T03490185  RH  038%=      5-min Rain = 0
KME1 022156Z 16010KT 35/18 A2996 RMK A01 T03460184  RH  038%=      5-min Rain = 0
KME1 022157Z 17009KT 34/18 A2996 RMK A01 T03430183  RH  039%=      5-min Rain = 0
KME1 022158Z 18009KT 34/18 A2996 RMK A01 T03410178  RH  038%=      5-min Rain = 0
KME1 022159Z 18011KT 34/18 A2996 RMK A01 T03390181  RH  039%=      5-min Rain = 0
KME1 022200Z 16012KT 34/18 A2996 RMK A01 T03380183  RH  040%=      5-min Rain = 0
KME1 022201Z 16010KT 34/18 A2996 RMK A01 T03380184  RH  040%=      5-min Rain = 0
KME1 022202Z 16011KT 34/19 A2996 RMK A01 T03390186  RH  040%=      5-min Rain = 0
KME1 022203Z 16011KT 34/18 A2996 RMK A01 T03390184  RH  040%=      5-min Rain = 0
KME1 022204Z 16010KT 34/18 A2996 RMK A01 T03390184  RH  040%=      5-min Rain = 0
KME1 022205Z 16011KT 34/19 A2996 RMK A01 T03400187  RH  041%=      5-min Rain = 0
KME1 022206Z 16011G16KT 34/19 A2996 RMK A01 T03420186  RH  040%=      5-min Rain = 0
KME1 022207Z 16014KT 34/18 A2996 RMK A01 T03430183  RH  039%=      5-min Rain = 0
KME1 022208Z 15012KT 34/18 A2996 RMK A01 T03420184  RH  039%=      5-min Rain = 0
KME1 022209Z 14011KT 34/18 A2996 RMK A01 T03410181  RH  039%=      5-min Rain = 0
KME1 022210Z 16013KT 34/18 A2996 RMK A01 T03400182  RH  039%=      5-min Rain = 0
KME1 022211Z 15011KT 34/18 A2996 RMK A01 T03400181  RH  039%=      5-min Rain = 0
KME1 022212Z 15012KT 34/18 A2996 RMK A01 T03420181  RH  039%=      5-min Rain = 0
KME1 022213Z 14012KT 34/18 A2996 RMK A01 T03430184  RH  039%=      5-min Rain = 0
KME1 022214Z 15009G14KT 34/18 A2996 RMK A01 T03440183  RH  038%=      5-min Rain = 0
KME1 022215Z 15009KT 35/19 A2996 RMK A01 T03450186  RH  039%=      5-min Rain = 0
KME1 022216Z 16011KT 35/19 A2996 RMK A01 T03460186  RH  039%=      5-min Rain = 0
KME1 022217Z 18010KT 35/18 A2996 RMK A01 T03470182  RH  038%=      5-min Rain = 0
KME1 022218Z 17011KT 35/18 A2996 RMK A01 T03450181  RH  038%=      5-min Rain = 0
KME1 022219Z 18010KT 34/18 A2996 RMK A01 T03430179  RH  038%=      5-min Rain = 0
KME1 022220Z 18015KT 34/17 A2996 RMK A01 T03410170  RH  036%=      5-min Rain = 0
KME1 022221Z 18012KT 34/16 A2996 RMK A01 T03390164  RH  035%=      5-min Rain = 0
KME1 022222Z 17010KT 34/16 A2996 RMK A01 T03390163  RH  035%=      5-min Rain = 0
KME1 022223Z 18010G17KT 34/16 A2996 RMK A01 T03420161  RH  034%=      5-min Rain = 0
KME1 022224Z 18014KT 34/16 A2996 RMK A01 T03440156  RH  033%=      5-min Rain = 0
KME1 022225Z 17012KT 35/15 A2996 RMK A01 T03460151  RH  031%=      5-min Rain = 0
KME1 022226Z 17011KT 35/16 A2996 RMK A01 T03470155  RH  032%=      5-min Rain = 0
KME1 022227Z 18010KT 35/16 A2996 RMK A01 T03510160  RH  032%=      5-min Rain = 0
KME1 022228Z 18014G19KT 35/15 A2996 RMK A01 T03540153  RH  030%=      5-min Rain = 0
KME1 022229Z 17015KT 35/15 A2996 RMK A01 T03530151  RH  030%=      5-min Rain = 0
KME1 022230Z 18015KT 35/15 A2996 RMK A01 T03510150  RH  030%=      5-min Rain = 0
KME1 022231Z 17013KT 35/15 A2996 RMK A01 T03490148  RH  030%=      5-min Rain = 0
KME1 022232Z 17014KT 35/15 A2996 RMK A01 T03480149  RH  030%=      5-min Rain = 0
KME1 022233Z 18013KT 35/15 A2996 RMK A01 T03490149  RH  030%=      5-min Rain = 0
KME1 022234Z 16011KT 35/15 A2996 RMK A01 T03500147  RH  030%=      5-min Rain = 0
KME1 022235Z 18011G16KT 35/15 A2996 RMK A01 T03520149  RH  030%=      5-min Rain = 0
KME1 022236Z 17011KT 35/15 A2996 RMK A01 T03530150  RH  030%=      5-min Rain = 0
KME1 022237Z 17015KT 35/15 A2996 RMK A01 T03540147  RH  029%=      5-min Rain = 0
KME1 022238Z 16014KT 35/14 A2996 RMK A01 T03530142  RH  028%=      5-min Rain = 0
KME1 022239Z 16015KT 35/15 A2996 RMK A01 T03520146  RH  029%=      5-min Rain = 0
KME1 022240Z 15012KT 35/15 A2996 RMK A01 T03510146  RH  029%=      5-min Rain = 0
KME1 022241Z 16011G16KT 35/15 A2996 RMK A01 T03510148  RH  030%=      5-min Rain = 0
KME1 022242Z 17012KT 35/15 A2996 RMK A01 T03510145  RH  029%=      5-min Rain = 0
KME1 022243Z 17010KT 35/14 A2996 RMK A01 T03510144  RH  029%=      5-min Rain = 0
KME1 022244Z 17010KT 35/15 A2997 RMK A01 T03490147  RH  030%=      5-min Rain = 0
KME1 022245Z 17010KT 35/15 A2997 RMK A01 T03470145  RH  030%=      5-min Rain = 0
KME1 022246Z 18009KT 35/15 A2996 RMK A01 T03460146  RH  030%=      5-min Rain = 0
KME1 022247Z 18007KT 35/15 A2996 RMK A01 T03470150  RH  031%=      5-min Rain = 0
KME1 022248Z 19010KT 35/15 A2996 RMK A01 T03490151  RH  031%=      5-min Rain = 0
KME1 022249Z 18011KT 35/15 A2996 RMK A01 T03500148  RH  030%=      5-min Rain = 0
KME1 022250Z 17012KT 35/15 A2996 RMK A01 T03500149  RH  030%=      5-min Rain = 0
KME1 022251Z 17012KT 35/15 A2996 RMK A01 T03490149  RH  030%=      5-min Rain = 0
KME1 022252Z 16011KT 35/15 A2996 RMK A01 T03490150  RH  030%=      5-min Rain = 0
KME1 022253Z 18010KT 35/15 A2996 RMK A01 T03500152  RH  031%=      5-min Rain = 0
KME1 022254Z 17012KT 35/15 A2996 RMK A01 T03500153  RH  031%=      5-min Rain = 0
KME1 022255Z 17009KT 35/15 A2996 RMK A01 T03500154  RH  031%=      5-min Rain = 0
KME1 022256Z 15008KT 35/16 A2996 RMK A01 T03500159  RH  032%=      5-min Rain = 0
KME1 022257Z 16010KT 35/16 A2996 RMK A01 T03500161  RH  032%=      5-min Rain = 0
KME1 022258Z 16011KT 35/16 A2996 RMK A01 T03500162  RH  033%=      5-min Rain = 0
KME1 022259Z 16011KT 35/16 A2996 RMK A01 T03490161  RH  033%=      5-min Rain = 0
KME1 022300Z 17007KT 35/16 A2996 RMK A01 T03480158  RH  032%=      5-min Rain = 0
KME1 022301Z 18010KT 35/16 A2996 RMK A01 T03470161  RH  033%=      5-min Rain = 0
KME1 022302Z 15008KT 35/16 A2996 RMK A01 T03480164  RH  033%=      5-min Rain = 0
KME1 022303Z 14010KT 35/16 A2996 RMK A01 T03500161  RH  033%=      5-min Rain = 0
KME1 022304Z 15010KT 35/16 A2996 RMK A01 T03500159  RH  032%=      5-min Rain = 0
KME1 022305Z 14011KT 35/16 A2996 RMK A01 T03490155  RH  031%=      5-min Rain = 0
KME1 022306Z 15013KT 35/16 A2996 RMK A01 T03480155  RH  032%=      5-min Rain = 0
KME1 022307Z 15011KT 35/16 A2996 RMK A01 T03480155  RH  032%=      5-min Rain = 0
KME1 022308Z 16012G17KT 35/16 A2996 RMK A01 T03480156  RH  032%=      5-min Rain = 0
KME1 022309Z 16011KT 35/16 A2996 RMK A01 T03490157  RH  032%=      5-min Rain = 0
KME1 022310Z 15011KT 35/16 A2996 RMK A01 T03480156  RH  032%=      5-min Rain = 0
KME1 022311Z 14013KT 35/16 A2996 RMK A01 T03480159  RH  032%=      5-min Rain = 0
KME1 022312Z 15011KT 35/16 A2996 RMK A01 T03490155  RH  031%=      5-min Rain = 0
KME1 022313Z 15010KT 35/15 A2996 RMK A01 T03480152  RH  031%=      5-min Rain = 0
KME1 022314Z 13008KT 35/16 A2996 RMK A01 T03470156  RH  032%=      5-min Rain = 0
KME1 022315Z 14011KT 35/16 A2995 RMK A01 T03470156  RH  032%=      5-min Rain = 0
KME1 022316Z 15009KT 35/16 A2995 RMK A01 T03470156  RH  032%=      5-min Rain = 0
KME1 022317Z 16009KT 35/15 A2995 RMK A01 T03470153  RH  031%=      5-min Rain = 0
KME1 022318Z 17009KT 35/15 A2995 RMK A01 T03470153  RH  031%=      5-min Rain = 0
KME1 022319Z 15008KT 35/15 A2995 RMK A01 T03490153  RH  031%=      5-min Rain = 0
KME1 022320Z 15010KT 35/15 A2995 RMK A01 T03510147  RH  030%=      5-min Rain = 0
KME1 022321Z 14013KT 35/14 A2995 RMK A01 T03510141  RH  028%=      5-min Rain = 0
KME1 022322Z 15011KT 35/13 A2995 RMK A01 T03500134  RH  027%=      5-min Rain = 0
KME1 022323Z 15011KT 35/14 A2995 RMK A01 T03500141  RH  029%=      5-min Rain = 0
KME1 022324Z 16011KT 35/14 A2995 RMK A01 T03510141  RH  028%=      5-min Rain = 0
KME1 022325Z 16012KT 35/13 A2995 RMK A01 T03520134  RH  027%=      5-min Rain = 0
KME1 022326Z 15011KT 35/13 A2995 RMK A01 T03510131  RH  027%=      5-min Rain = 0
KME1 022327Z 17008KT 35/13 A2995 RMK A01 T03510130  RH  027%=      5-min Rain = 0
KME1 022328Z 16008KT 35/14 A2995 RMK A01 T03500137  RH  028%=      5-min Rain = 0
KME1 022329Z 17009KT 35/13 A2995 RMK A01 T03510134  RH  027%=      5-min Rain = 0
KME1 022330Z 17006KT 35/14 A2995 RMK A01 T03510135  RH  027%=      5-min Rain = 0
KME1 022331Z 17006KT 35/14 A2995 RMK A01 T03510140  RH  028%=      5-min Rain = 0
KME1 022332Z 16008KT 35/14 A2995 RMK A01 T03520139  RH  028%=      5-min Rain = 0
KME1 022333Z 17010KT 35/14 A2995 RMK A01 T03530139  RH  028%=      5-min Rain = 0
KME1 022334Z 16011KT 35/13 A2995 RMK A01 T03530130  RH  026%=      5-min Rain = 0
KME1 022335Z 17011KT 35/12 A2995 RMK A01 T03530124  RH  025%=      5-min Rain = 0
KME1 022336Z 17011KT 35/12 A2995 RMK A01 T03530119  RH  024%=      5-min Rain = 0
KME1 022337Z 15009KT 35/12 A2995 RMK A01 T03530123  RH  025%=      5-min Rain = 0
KME1 022338Z 16011KT 35/13 A2995 RMK A01 T03530126  RH  025%=      5-min Rain = 0
KME1 022339Z 16011KT 35/12 A2994 RMK A01 T03540124  RH  025%=      5-min Rain = 0
KME1 022340Z 15010KT 35/12 A2995 RMK A01 T03530124  RH  025%=      5-min Rain = 0
KME1 022341Z 15010KT 35/12 A2995 RMK A01 T03520122  RH  025%=      5-min Rain = 0
KME1 022342Z 16012KT 35/12 A2995 RMK A01 T03520124  RH  025%=      5-min Rain = 0
KME1 022343Z 16012KT 35/12 A2995 RMK A01 T03510122  RH  025%=      5-min Rain = 0
KME1 022344Z 15011KT 35/12 A2995 RMK A01 T03510122  RH  025%=      5-min Rain = 0
KME1 022345Z 16007KT 35/12 A2995 RMK A01 T03500119  RH  025%=      5-min Rain = 0
KME1 022346Z 16010KT 35/13 A2995 RMK A01 T03500127  RH  026%=      5-min Rain = 0
KME1 022347Z 15009KT 35/12 A2995 RMK A01 T03500122  RH  025%=      5-min Rain = 0
KME1 022348Z 15009KT 35/12 A2995 RMK A01 T03500124  RH  026%=      5-min Rain = 0
KME1 022349Z 15010KT 35/12 A2995 RMK A01 T03490119  RH  025%=      5-min Rain = 0
KME1 022350Z 15009KT 35/12 A2995 RMK A01 T03490118  RH  025%=      5-min Rain = 0
KME1 022351Z 15012KT 35/12 A2994 RMK A01 T03490118  RH  025%=      5-min Rain = 0
KME1 022352Z 15010KT 35/12 A2995 RMK A01 T03490115  RH  024%=      5-min Rain = 0
KME1 022353Z 15008KT 35/12 A2995 RMK A01 T03490119  RH  025%=      5-min Rain = 0
KME1 022354Z 16007KT 35/13 A2994 RMK A01 T03490125  RH  026%=      5-min Rain = 0
KME1 022355Z 15008KT 35/12 A2994 RMK A01 T03500123  RH  025%=      5-min Rain = 0
KME1 022356Z 16009KT 35/13 A2994 RMK A01 T03500125  RH  026%=      5-min Rain = 0
KME1 022357Z 16008KT 35/13 A2994 RMK A01 T03510126  RH  026%=      5-min Rain = 0
KME1 022358Z 16011KT 35/12 A2994 RMK A01 T03510122  RH  025%=      5-min Rain = 0
KME1 022359Z 17012KT 35/12 A2994 RMK A01 T03500118  RH  024%=      5-min Rain = 0
KME1 030000Z 18013KT 35/12 A2994 RMK A01 T03490117  RH  025%=      5-min Rain = 0
KME1 030001Z 17011KT 35/12 A2994 RMK A01 T03490115  RH  024%=      5-min Rain = 0
KME1 030002Z 17010KT 35/12 A2994 RMK A01 T03480115  RH  024%=      5-min Rain = 0
KME1 030003Z 18011G16KT 35/12 A2994 RMK A01 T03470115  RH  025%=      5-min Rain = 0
KME1 030004Z 17013G18KT 35/11 A2994 RMK A01 T03470109  RH  024%=      5-min Rain = 0
KME1 030005Z 17011KT 35/11 A2994 RMK A01 T03470114  RH  024%=      5-min Rain = 0
KME1 030006Z 17014KT 35/11 A2994 RMK A01 T03470113  RH  024%=      5-min Rain = 0
KME1 030007Z 17013KT 35/11 A2994 RMK A01 T03470112  RH  024%=      5-min Rain = 0
KME1 030008Z 17011KT 35/12 A2994 RMK A01 T03470115  RH  025%=      5-min Rain = 0
KME1 030009Z 16011KT 35/12 A2994 RMK A01 T03470115  RH  024%=      5-min Rain = 0
KME1 030010Z 16012KT 35/12 A2994 RMK A01 T03470115  RH  025%=      5-min Rain = 0
KME1 030011Z 16009KT 35/12 A2994 RMK A01 T03470116  RH  025%=      5-min Rain = 0
KME1 030012Z 17010KT 35/11 A2994 RMK A01 T03470114  RH  024%=      5-min Rain = 0
KME1 030013Z 16010KT 35/12 A2994 RMK A01 T03470115  RH  024%=      5-min Rain = 0
KME1 030014Z 16009KT 35/12 A2994 RMK A01 T03470116  RH  025%=      5-min Rain = 0
KME1 030015Z 15007KT 35/12 A2994 RMK A01 T03460119  RH  025%=      5-min Rain = 0
KME1 030016Z 16010KT 35/12 A2994 RMK A01 T03460118  RH  025%=      5-min Rain = 0
KME1 030017Z 15009KT 35/12 A2994 RMK A01 T03470118  RH  025%=      5-min Rain = 0
KME1 030018Z 15009KT 35/12 A2994 RMK A01 T03470121  RH  026%=      5-min Rain = 0
KME1 030019Z 15010KT 35/12 A2994 RMK A01 T03470120  RH  025%=      5-min Rain = 0
KME1 030020Z 16009KT 35/12 A2994 RMK A01 T03470121  RH  025%=      5-min Rain = 0
KME1 030021Z 16009KT 35/12 A2994 RMK A01 T03470122  RH  026%=      5-min Rain = 0
KME1 030022Z 16010KT 35/13 A2994 RMK A01 T03460126  RH  026%=      5-min Rain = 0
KME1 030023Z 16008KT 35/12 A2994 RMK A01 T03470124  RH  026%=      5-min Rain = 0
KME1 030024Z 15009KT 35/12 A2994 RMK A01 T03470123  RH  026%=      5-min Rain = 0
KME1 030025Z 14009KT 35/12 A2994 RMK A01 T03460123  RH  026%=      5-min Rain = 0
KME1 030026Z 16009KT 35/13 A2994 RMK A01 T03460125  RH  026%=      5-min Rain = 0
KME1 030027Z 16008KT 35/13 A2994 RMK A01 T03450125  RH  026%=      5-min Rain = 0
KME1 030028Z 16012KT 34/12 A2994 RMK A01 T03440124  RH  026%=      5-min Rain = 0
KME1 030029Z 17009KT 34/13 A2994 RMK A01 T03430126  RH  027%=      5-min Rain = 0
KME1 030030Z 17010KT 34/13 A2994 RMK A01 T03420129  RH  028%=      5-min Rain = 0
KME1 030031Z 16009KT 34/13 A2994 RMK A01 T03420127  RH  027%=      5-min Rain = 0
KME1 030032Z 17008KT 34/13 A2994 RMK A01 T03410129  RH  028%=      5-min Rain = 0
KME1 030033Z 16007KT 34/13 A2994 RMK A01 T03410129  RH  028%=      5-min Rain = 0
KME1 030034Z 16010KT 34/13 A2994 RMK A01 T03400128  RH  028%=      5-min Rain = 0
KME1 030035Z 16011KT 34/13 A2994 RMK A01 T03390127  RH  028%=      5-min Rain = 0
KME1 030036Z 17012KT 34/12 A2994 RMK A01 T03390122  RH  027%=      5-min Rain = 0
KME1 030037Z 17010KT 34/12 A2994 RMK A01 T03380124  RH  027%=      5-min Rain = 0
KME1 030038Z 17011KT 34/12 A2994 RMK A01 T03370123  RH  027%=      5-min Rain = 0
KME1 030039Z 16009KT 34/12 A2994 RMK A01 T03360123  RH  027%=      5-min Rain = 0
KME1 030040Z 15009KT 34/13 A2994 RMK A01 T03360125  RH  028%=      5-min Rain = 0
KME1 030041Z 16009KT 34/12 A2994 RMK A01 T03350124  RH  028%=      5-min Rain = 0
KME1 030042Z 16010KT 34/12 A2994 RMK A01 T03350124  RH  028%=      5-min Rain = 0
KME1 030043Z 16010KT 34/12 A2995 RMK A01 T03350123  RH  028%=      5-min Rain = 0
KME1 030044Z 16009KT 34/12 A2995 RMK A01 T03350124  RH  028%=      5-min Rain = 0
KME1 030045Z 16009KT 34/13 A2995 RMK A01 T03360126  RH  028%=      5-min Rain = 0
KME1 030046Z 16008KT 34/13 A2995 RMK A01 T03360127  RH  028%=      5-min Rain = 0
KME1 030047Z 16007KT 34/13 A2995 RMK A01 T03360127  RH  028%=      5-min Rain = 0
KME1 030048Z 16007KT 34/13 A2995 RMK A01 T03360131  RH  029%=      5-min Rain = 0
KME1 030049Z 16009KT 34/13 A2995 RMK A01 T03360131  RH  029%=      5-min Rain = 0
KME1 030050Z 16008KT 34/13 A2995 RMK A01 T03360132  RH  029%=      5-min Rain = 0
KME1 030051Z 17008KT 34/13 A2994 RMK A01 T03360132  RH  029%=      5-min Rain = 0
KME1 030052Z 17011KT 34/13 A2994 RMK A01 T03360130  RH  029%=      5-min Rain = 0
KME1 030053Z 17008KT 34/13 A2994 RMK A01 T03350134  RH  030%=      5-min Rain = 0
KME1 030054Z 16008KT 34/14 A2995 RMK A01 T03350136  RH  030%=      5-min Rain = 0
KME1 030055Z 16010KT 33/13 A2995 RMK A01 T03340132  RH  029%=      5-min Rain = 0
KME1 030056Z 16009KT 33/13 A2995 RMK A01 T03340134  RH  030%=      5-min Rain = 0
KME1 030057Z 15007KT 33/14 A2995 RMK A01 T03330135  RH  030%=      5-min Rain = 0
KME1 030058Z 15007KT 33/14 A2995 RMK A01 T03330136  RH  030%=      5-min Rain = 0
KME1 030059Z 15007KT 33/14 A2995 RMK A01 T03320136  RH  031%=      5-min Rain = 0
KME1 030100Z 15008KT 33/14 A2995 RMK A01 T03310135  RH  031%=      5-min Rain = 0
KME1 030101Z 15008KT 33/14 A2995 RMK A01 T03300136  RH  031%=      5-min Rain = 0
KME1 030102Z 16007KT 33/14 A2995 RMK A01 T03300136  RH  031%=      5-min Rain = 0
KME1 030103Z 16008KT 33/14 A2995 RMK A01 T03290138  RH  031%=      5-min Rain = 0
KME1 030104Z 15006KT 33/14 A2995 RMK A01 T03290139  RH  032%=      5-min Rain = 0
KME1 030105Z 14006KT 33/14 A2995 RMK A01 T03280141  RH  032%=      5-min Rain = 0
KME1 030106Z 15007KT 33/14 A2995 RMK A01 T03260142  RH  033%=      5-min Rain = 0
KME1 030107Z 15007KT 33/14 A2995 RMK A01 T03250140  RH  033%=      5-min Rain = 0
KME1 030108Z 15008KT 33/14 A2995 RMK A01 T03250140  RH  033%=      5-min Rain = 0
KME1 030109Z 15007KT 33/14 A2995 RMK A01 T03250140  RH  033%=      5-min Rain = 0
KME1 030110Z 14007KT 33/14 A2995 RMK A01 T03250141  RH  033%=      5-min Rain = 0
KME1 030111Z 14007KT 33/14 A2995 RMK A01 T03250142  RH  033%=      5-min Rain = 0
KME1 030112Z 14008KT 33/14 A2995 RMK A01 T03250141  RH  033%=      5-min Rain = 0
KME1 030113Z 15010KT 33/14 A2995 RMK A01 T03250142  RH  033%=      5-min Rain = 0
KME1 030114Z 15008KT 33/14 A2995 RMK A01 T03250141  RH  033%=      5-min Rain = 0
KME1 030115Z 15006KT 33/14 A2995 RMK A01 T03250142  RH  033%=      5-min Rain = 0
KME1 030116Z 15007KT 33/14 A2995 RMK A01 T03250144  RH  034%=      5-min Rain = 0
KME1 030117Z 15007KT 32/15 A2995 RMK A01 T03240145  RH  034%=      5-min Rain = 0
KME1 030118Z 15006KT 32/14 A2995 RMK A01 T03230144  RH  034%=      5-min Rain = 0
KME1 030119Z 15008KT 32/14 A2995 RMK A01 T03220144  RH  034%=      5-min Rain = 0
KME1 030120Z 16008KT 32/14 A2995 RMK A01 T03220143  RH  034%=      5-min Rain = 0
KME1 030121Z 15006KT 32/14 A2995 RMK A01 T03220144  RH  034%=      5-min Rain = 0
KME1 030122Z 15008KT 32/15 A2995 RMK A01 T03210146  RH  035%=      5-min Rain = 0
KME1 030123Z 15006KT 32/15 A2995 RMK A01 T03200145  RH  035%=      5-min Rain = 0
KME1 030124Z 15006KT 32/15 A2995 RMK A01 T03200146  RH  035%=      5-min Rain = 0
KME1 030125Z 15005KT 32/15 A2995 RMK A01 T03190147  RH  035%=      5-min Rain = 0
KME1 030126Z 15006KT 32/15 A2995 RMK A01 T03170147  RH  036%=      5-min Rain = 0
KME1 030127Z 15007KT 32/15 A2995 RMK A01 T03170145  RH  035%=      5-min Rain = 0
KME1 030128Z 15007KT 32/15 A2995 RMK A01 T03170146  RH  035%=      5-min Rain = 0
KME1 030129Z 16007KT 32/15 A2995 RMK A01 T03170146  RH  036%=      5-min Rain = 0
KME1 030130Z 15006KT 32/15 A2995 RMK A01 T03160146  RH  036%=      5-min Rain = 0
KME1 030131Z 15006KT 32/15 A2995 RMK A01 T03160147  RH  036%=      5-min Rain = 0
KME1 030132Z 15007KT 32/15 A2995 RMK A01 T03150146  RH  036%=      5-min Rain = 0
KME1 030133Z 15007KT 32/15 A2995 RMK A01 T03150146  RH  036%=      5-min Rain = 0
KME1 030134Z 15007KT 32/15 A2995 RMK A01 T03150146  RH  036%=      5-min Rain = 0
KME1 030135Z 14007KT 31/15 A2995 RMK A01 T03140145  RH  036%=      5-min Rain = 0
KME1 030136Z 14006KT 32/14 A2995 RMK A01 T03150144  RH  036%=      5-min Rain = 0
KME1 030137Z 15007KT 31/15 A2995 RMK A01 T03140145  RH  036%=      5-min Rain = 0
KME1 030138Z 14006KT 32/15 A2995 RMK A01 T03150146  RH  036%=      5-min Rain = 0
KME1 030139Z 14006KT 31/15 A2995 RMK A01 T03140145  RH  036%=      5-min Rain = 0
KME1 030140Z 15006KT 31/15 A2995 RMK A01 T03140146  RH  036%=      5-min Rain = 0
KME1 030141Z 15005KT 31/15 A2995 RMK A01 T03130146  RH  036%=      5-min Rain = 0
KME1 030142Z 14006KT 31/15 A2995 RMK A01 T03120145  RH  036%=      5-min Rain = 0
KME1 030143Z 14005KT 31/15 A2995 RMK A01 T03110147  RH  037%=      5-min Rain = 0
KME1 030144Z 14006KT 31/15 A2995 RMK A01 T03110146  RH  037%=      5-min Rain = 0
KME1 030145Z 14005KT 31/15 A2995 RMK A01 T03100145  RH  037%=      5-min Rain = 0
KME1 030146Z 14005KT 31/15 A2995 RMK A01 T03100146  RH  037%=      5-min Rain = 0
KME1 030147Z 15005KT 31/15 A2995 RMK A01 T03090147  RH  037%=      5-min Rain = 0
KME1 030148Z 15005KT 31/15 A2995 RMK A01 T03090147  RH  037%=      5-min Rain = 0
KME1 030149Z 14005KT 31/15 A2995 RMK A01 T03080147  RH  038%=      5-min Rain = 0
KME1 030150Z 15005KT 31/15 A2995 RMK A01 T03070147  RH  038%=      5-min Rain = 0
KME1 030151Z 15006KT 31/15 A2995 RMK A01 T03070148  RH  038%=      5-min Rain = 0
KME1 030152Z 15005KT 31/15 A2995 RMK A01 T03060147  RH  038%=      5-min Rain = 0
KME1 030153Z 15005KT 31/15 A2995 RMK A01 T03050149  RH  039%=      5-min Rain = 0
KME1 030154Z 15005KT 30/15 A2995 RMK A01 T03040148  RH  039%=      5-min Rain = 0
KME1 030155Z 15005KT 30/15 A2995 RMK A01 T03030149  RH  039%=      5-min Rain = 0
KME1 030156Z 15006KT 30/15 A2995 RMK A01 T03030148  RH  039%=      5-min Rain = 0
KME1 030157Z 15005KT 30/15 A2995 RMK A01 T03020148  RH  039%=      5-min Rain = 0
KME1 030158Z 15005KT 30/15 A2995 RMK A01 T03020150  RH  040%=      5-min Rain = 0
KME1 030159Z 15005KT 30/15 A2995 RMK A01 T03010148  RH  039%=      5-min Rain = 0
KME1 030200Z 15005KT 30/15 A2995 RMK A01 T03010150  RH  040%=      5-min Rain = 0
KME1 030201Z 15005KT 30/15 A2995 RMK A01 T03000149  RH  040%=      5-min Rain = 0
KME1 030202Z 15006KT 30/15 A2995 RMK A01 T02990150  RH  040%=      5-min Rain = 0
KME1 030203Z 15005KT 30/15 A2995 RMK A01 T02990149  RH  040%=      5-min Rain = 0
KME1 030204Z 15005KT 30/15 A2995 RMK A01 T02980149  RH  040%=      5-min Rain = 0
KME1 030205Z 14005KT 30/15 A2995 RMK A01 T02980149  RH  040%=      5-min Rain = 0
KME1 030206Z 14005KT 30/15 A2995 RMK A01 T02970148  RH  040%=      5-min Rain = 0
KME1 030207Z 14005KT 30/15 A2995 RMK A01 T02980149  RH  040%=      5-min Rain = 0
KME1 030208Z 14005KT 30/15 A2996 RMK A01 T02980150  RH  041%=      5-min Rain = 0
KME1 030209Z 14005KT 30/15 A2996 RMK A01 T02960150  RH  041%=      5-min Rain = 0
KME1 030210Z 14005KT 30/15 A2996 RMK A01 T02960149  RH  041%=      5-min Rain = 0
KME1 030211Z 14005KT 30/15 A2996 RMK A01 T02950149  RH  041%=      5-min Rain = 0
KME1 030212Z 15006KT 30/15 A2996 RMK A01 T02950148  RH  041%=      5-min Rain = 0
KME1 030213Z 15006KT 30/15 A2996 RMK A01 T02950148  RH  041%=      5-min Rain = 0
KME1 030214Z 14006KT 30/15 A2996 RMK A01 T02950150  RH  041%=      5-min Rain = 0
KME1 030215Z 14005KT 29/15 A2996 RMK A01 T02940149  RH  041%=      5-min Rain = 0
KME1 030216Z 15005KT 29/15 A2996 RMK A01 T02940148  RH  041%=      5-min Rain = 0
KME1 030217Z 15005KT 29/15 A2996 RMK A01 T02940147  RH  041%=      5-min Rain = 0
KME1 030218Z 15005KT 29/15 A2996 RMK A01 T02940147  RH  041%=      5-min Rain = 0
KME1 030219Z 16005KT 29/15 A2996 RMK A01 T02940149  RH  041%=      5-min Rain = 0
KME1 030220Z 15006KT 29/15 A2995 RMK A01 T02930150  RH  042%=      5-min Rain = 0
KME1 030221Z 15006KT 29/15 A2995 RMK A01 T02930149  RH  042%=      5-min Rain = 0
KME1 030222Z 15005KT 29/15 A2995 RMK A01 T02920151  RH  042%=      5-min Rain = 0
KME1 030223Z 15005KT 29/15 A2995 RMK A01 T02910150  RH  042%=      5-min Rain = 0
KME1 030224Z 15005KT 29/15 A2995 RMK A01 T02900150  RH  042%=      5-min Rain = 0
KME1 030225Z 15005KT 29/15 A2995 RMK A01 T02900148  RH  042%=      5-min Rain = 0
KME1 030226Z 15005KT 29/15 A2995 RMK A01 T02900149  RH  042%=      5-min Rain = 0
KME1 030227Z 15004KT 29/15 A2996 RMK A01 T02890149  RH  042%=      5-min Rain = 0
KME1 030228Z 15005KT 29/15 A2996 RMK A01 T02890148  RH  042%=      5-min Rain = 0
KME1 030229Z 15005KT 29/15 A2996 RMK A01 T02890148  RH  042%=      5-min Rain = 0
KME1 030230Z 15004KT 29/15 A2996 RMK A01 T02890149  RH  042%=      5-min Rain = 0
KME1 030231Z 15004KT 29/15 A2996 RMK A01 T02890150  RH  043%=      5-min Rain = 0
KME1 030232Z 15004KT 29/15 A2996 RMK A01 T02880150  RH  043%=      5-min Rain = 0
KME1 030233Z 15004KT 29/15 A2996 RMK A01 T02870151  RH  043%=      5-min Rain = 0
KME1 030234Z 15004KT 29/15 A2996 RMK A01 T02860150  RH  044%=      5-min Rain = 0
KME1 030235Z 16004KT 29/15 A2996 RMK A01 T02860150  RH  044%=      5-min Rain = 0
KME1 030236Z 15003KT 29/15 A2996 RMK A01 T02850151  RH  044%=      5-min Rain = 0
KME1 030237Z 15003KT 28/15 A2996 RMK A01 T02840152  RH  044%=      5-min Rain = 0
KME1 030238Z 15004KT 28/15 A2996 RMK A01 T02840152  RH  045%=      5-min Rain = 0
KME1 030239Z 15004KT 28/15 A2996 RMK A01 T02830152  RH  045%=      5-min Rain = 0
KME1 030240Z 15004KT 28/15 A2996 RMK A01 T02830153  RH  045%=      5-min Rain = 0
KME1 030241Z 14004KT 28/15 A2996 RMK A01 T02820154  RH  046%=      5-min Rain = 0
KME1 030242Z 14004KT 28/15 A2996 RMK A01 T02810153  RH  046%=      5-min Rain = 0
KME1 030243Z 14004KT 28/15 A2996 RMK A01 T02800154  RH  046%=      5-min Rain = 0
KME1 030244Z 14004KT 28/15 A2996 RMK A01 T02790152  RH  046%=      5-min Rain = 0
KME1 030245Z 14003KT 28/15 A2996 RMK A01 T02790151  RH  046%=      5-min Rain = 0
KME1 030246Z 14004KT 28/15 A2996 RMK A01 T02790153  RH  046%=      5-min Rain = 0
KME1 030247Z 15003KT 28/15 A2996 RMK A01 T02780153  RH  047%=      5-min Rain = 0
KME1 030248Z 15002KT 28/15 A2996 RMK A01 T02770152  RH  046%=      5-min Rain = 0
KME1 030249Z 15003KT 28/15 A2996 RMK A01 T02770154  RH  047%=      5-min Rain = 0
KME1 030250Z 15002KT 28/15 A2996 RMK A01 T02760154  RH  047%=      5-min Rain = 0
KME1 030251Z 16003KT 28/15 A2996 RMK A01 T02760154  RH  047%=      5-min Rain = 0
KME1 030252Z 16003KT 28/15 A2996 RMK A01 T02760154  RH  048%=      5-min Rain = 0
KME1 030253Z 17003KT 28/16 A2996 RMK A01 T02750156  RH  048%=      5-min Rain = 0
KME1 030254Z 18003KT 27/16 A2996 RMK A01 T02740159  RH  049%=      5-min Rain = 0
KME1 030255Z 18003KT 27/16 A2997 RMK A01 T02740160  RH  050%=      5-min Rain = 0
KME1 030256Z 18003KT 27/16 A2997 RMK A01 T02730160  RH  050%=      5-min Rain = 0
KME1 030257Z 18003KT 27/16 A2997 RMK A01 T02720160  RH  050%=      5-min Rain = 0
KME1 030258Z 18003KT 27/16 A2997 RMK A01 T02720160  RH  051%=      5-min Rain = 0
KME1 030259Z 18003KT 27/16 A2997 RMK A01 T02720158  RH  050%=      5-min Rain = 0
KME1 030300Z 19002KT 27/16 A2997 RMK A01 T02710160  RH  051%=      5-min Rain = 0
KME1 030301Z 19002KT 27/16 A2997 RMK A01 T02710161  RH  051%=      5-min Rain = 0
KME1 030302Z 19003KT 27/16 A2997 RMK A01 T02700163  RH  052%=      5-min Rain = 0
KME1 030303Z 18002KT 27/16 A2997 RMK A01 T02690163  RH  052%=      5-min Rain = 0
KME1 030304Z 19002KT 27/16 A2997 RMK A01 T02680162  RH  052%=      5-min Rain = 0
KME1 030305Z 18002KT 27/16 A2997 RMK A01 T02680164  RH  053%=      5-min Rain = 0
KME1 030306Z 19002KT 27/16 A2997 RMK A01 T02670163  RH  053%=      5-min Rain = 0
KME1 030307Z 19002KT 27/16 A2997 RMK A01 T02660161  RH  053%=      5-min Rain = 0
KME1 030308Z 19002KT 27/16 A2997 RMK A01 T02660161  RH  052%=      5-min Rain = 0
KME1 030309Z 19002KT 27/16 A2997 RMK A01 T02660162  RH  053%=      5-min Rain = 0
KME1 030310Z 20001KT 27/17 A2997 RMK A01 T02660166  RH  054%=      5-min Rain = 0
KME1 030311Z 20001KT 27/17 A2998 RMK A01 T02660168  RH  055%=      5-min Rain = 0
KME1 030312Z 21001KT 27/17 A2998 RMK A01 T02660172  RH  056%=      5-min Rain = 0
KME1 030313Z 21001KT 27/17 A2998 RMK A01 T02650171  RH  056%=      5-min Rain = 0
KME1 030314Z 21001KT 26/17 A2998 RMK A01 T02640171  RH  057%=      5-min Rain = 0
KME1 030315Z 00000KT 26/18 A2998 RMK A01 T02630176  RH  059%=      5-min Rain = 0
KME1 030316Z 00000KT 26/17 A2998 RMK A01 T02600170  RH  057%=      5-min Rain = 0
KME1 030317Z 35000KT 26/17 A2998 RMK A01 T02590170  RH  058%=      5-min Rain = 0
KME1 030318Z 36000KT 26/18 A2998 RMK A01 T02580179  RH  062%=      5-min Rain = 0
KME1 030319Z 00000KT 26/18 A2998 RMK A01 T02560176  RH  061%=      5-min Rain = 0
KME1 030320Z 34000KT 25/17 A2998 RMK A01 T02540174  RH  061%=      5-min Rain = 0
KME1 030321Z 34000KT 25/18 A2998 RMK A01 T02530175  RH  062%=      5-min Rain = 0
KME1 030322Z 34000KT 25/18 A2998 RMK A01 T02520177  RH  063%=      5-min Rain = 0
KME1 030323Z 34000KT 25/18 A2998 RMK A01 T02520177  RH  063%=      5-min Rain = 0
KME1 030324Z 32000KT 25/18 A2998 RMK A01 T02510178  RH  064%=      5-min Rain = 0
KME1 030325Z 32001KT 25/18 A2998 RMK A01 T02500178  RH  064%=      5-min Rain = 0
KME1 030326Z 32001KT 25/18 A2999 RMK A01 T02490178  RH  065%=      5-min Rain = 0
KME1 030327Z 31001KT 25/18 A2999 RMK A01 T02480176  RH  064%=      5-min Rain = 0
KME1 030328Z 32001KT 25/18 A2999 RMK A01 T02480177  RH  065%=      5-min Rain = 0
KME1 030329Z 32001KT 25/18 A2999 RMK A01 T02480178  RH  065%=      5-min Rain = 0
KME1 030330Z 32001KT 25/18 A2999 RMK A01 T02470178  RH  065%=      5-min Rain = 0
KME1 030331Z 31001KT 25/18 A2999 RMK A01 T02470177  RH  065%=      5-min Rain = 0
KME1 030332Z 32002KT 25/18 A2999 RMK A01 T02470176  RH  065%=      5-min Rain = 0
KME1 030333Z 33001KT 25/18 A2999 RMK A01 T02470175  RH  064%=      5-min Rain = 0
KME1 030334Z 33001KT 25/18 A2999 RMK A01 T02470175  RH  064%=      5-min Rain = 0
KME1 030335Z 33001KT 25/18 A2999 RMK A01 T02470176  RH  065%=      5-min Rain = 0
KME1 030336Z 33002KT 25/18 A2999 RMK A01 T02460176  RH  065%=      5-min Rain = 0
KME1 030337Z 33002KT 25/18 A2999 RMK A01 T02460177  RH  065%=      5-min Rain = 0
KME1 030338Z 33002KT 25/18 A2999 RMK A01 T02460177  RH  065%=      5-min Rain = 0
KME1 030339Z 33002KT 25/18 A2999 RMK A01 T02460177  RH  066%=      5-min Rain = 0
KME1 030340Z 33002KT 25/18 A2999 RMK A01 T02450178  RH  066%=      5-min Rain = 0
KME1 030341Z 33002KT 25/18 A2999 RMK A01 T02450180  RH  067%=      5-min Rain = 0
KME1 030342Z 31002KT 25/18 A2999 RMK A01 T02450183  RH  069%=      5-min Rain = 0
KME1 030343Z 31002KT 24/18 A2999 RMK A01 T02440183  RH  069%=      5-min Rain = 0
KME1 030344Z 31001KT 24/18 A2999 RMK A01 T02440180  RH  068%=      5-min Rain = 0
KME1 030345Z 29001KT 24/18 A2999 RMK A01 T02430182  RH  069%=      5-min Rain = 0
KME1 030346Z 00000KT 24/18 A2999 RMK A01 T02430182  RH  069%=      5-min Rain = 0
KME1 030347Z 26000KT 24/18 A2999 RMK A01 T02420175  RH  066%=      5-min Rain = 0
KME1 030348Z 26001KT 24/18 A2999 RMK A01 T02430180  RH  068%=      5-min Rain = 0
KME1 030349Z 25000KT 24/18 A2999 RMK A01 T02430184  RH  070%=      5-min Rain = 0
KME1 030350Z 24001KT 24/19 A2999 RMK A01 T02430185  RH  070%=      5-min Rain = 0
KME1 030351Z 23001KT 24/19 A2999 RMK A01 T02420185  RH  070%=      5-min Rain = 0
KME1 030352Z 22001KT 24/18 A2999 RMK A01 T02420184  RH  070%=      5-min Rain = 0
KME1 030353Z 21001KT 24/18 A2999 RMK A01 T02410184  RH  070%=      5-min Rain = 0
KME1 030354Z 21001KT 24/19 A2999 RMK A01 T02410185  RH  071%=      5-min Rain = 0
KME1 030355Z 21001KT 24/19 A2999 RMK A01 T02410188  RH  072%=      5-min Rain = 0
KME1 030356Z 21001KT 24/19 A2999 RMK A01 T02400187  RH  072%=      5-min Rain = 0
KME1 030357Z 21001KT 24/19 A2999 RMK A01 T02390187  RH  072%=      5-min Rain = 0
KME1 030358Z 21001KT 24/19 A2999 RMK A01 T02390189  RH  073%=      5-min Rain = 0
KME1 030359Z 21002KT 24/19 A2999 RMK A01 T02390191  RH  074%=      5-min Rain = 0
KME1 030400Z 21002KT 24/19 A2999 RMK A01 T02390187  RH  073%=      5-min Rain = 0
KME1 030401Z 21002KT 24/19 A30 RMK A01 T02380186  RH  073%=      5-min Rain = 0
KME1 030402Z 20001KT 24/19 A30 RMK A01 T02380187  RH  073%=      5-min Rain = 0
KME1 030403Z 20001KT 24/19 A30 RMK A01 T02380186  RH  072%=      5-min Rain = 0
KME1 030404Z 18000KT 24/19 A30 RMK A01 T02390189  RH  074%=      5-min Rain = 0
KME1 030405Z 18000KT 24/19 A30 RMK A01 T02390187  RH  073%=      5-min Rain = 0
KME1 030406Z 00000KT 24/19 A30 RMK A01 T02390187  RH  073%=      5-min Rain = 0
KME1 030407Z 00000KT 24/19 A30 RMK A01 T02390188  RH  073%=      5-min Rain = 0
KME1 030408Z 00000KT 24/19 A30 RMK A01 T02380189  RH  074%=      5-min Rain = 0
KME1 030409Z 00000KT 24/19 A30 RMK A01 T02380190  RH  074%=      5-min Rain = 0
KME1 030410Z 00000KT 24/19 A30 RMK A01 T02380190  RH  075%=      5-min Rain = 0
KME1 030411Z 00000KT 24/19 A30 RMK A01 T02370191  RH  075%=      5-min Rain = 0
KME1 030412Z 00000KT 24/19 A30 RMK A01 T02380194  RH  077%=      5-min Rain = 0
KME1 030413Z 31000KT 24/19 A30 RMK A01 T02370190  RH  075%=      5-min Rain = 0
KME1 030414Z 30001KT 24/19 A30 RMK A01 T02370185  RH  072%=      5-min Rain = 0
KME1 030415Z 33000KT 24/18 A30 RMK A01 T02380180  RH  070%=      5-min Rain = 0
KME1 030416Z 35001KT 24/19 A30 RMK A01 T02390187  RH  073%=      5-min Rain = 0
KME1 030417Z 02001KT 24/19 A30 RMK A01 T02390187  RH  073%=      5-min Rain = 0
KME1 030418Z 02001KT 24/19 A3001 RMK A01 T02380187  RH  073%=      5-min Rain = 0
KME1 030419Z 02002KT 24/19 A3001 RMK A01 T02370190  RH  075%=      5-min Rain = 0
KME1 030420Z 01002KT 24/19 A3001 RMK A01 T02350193  RH  077%=      5-min Rain = 0
KME1 030421Z 00002KT 23/19 A3001 RMK A01 T02330194  RH  079%=      5-min Rain = 0
KME1 030422Z 01002KT 23/19 A3001 RMK A01 T02310190  RH  078%=      5-min Rain = 0
KME1 030423Z 01002KT 23/19 A3001 RMK A01 T02310187  RH  076%=      5-min Rain = 0
KME1 030424Z 00002KT 23/19 A3001 RMK A01 T02310188  RH  077%=      5-min Rain = 0
KME1 030425Z 01002KT 23/19 A3001 RMK A01 T02310187  RH  076%=      5-min Rain = 0
KME1 030426Z 02001KT 23/19 A3001 RMK A01 T02320188  RH  076%=      5-min Rain = 0
KME1 030427Z 01001KT 23/19 A3001 RMK A01 T02320188  RH  076%=      5-min Rain = 0
KME1 030428Z 01002KT 23/18 A3001 RMK A01 T02320184  RH  074%=      5-min Rain = 0
KME1 030429Z 36002KT 23/18 A3001 RMK A01 T02330183  RH  074%=      5-min Rain = 0
KME1 030430Z 35002KT 23/18 A3002 RMK A01 T02330184  RH  074%=      5-min Rain = 0
KME1 030431Z 00002KT 23/19 A3002 RMK A01 T02340186  RH  074%=      5-min Rain = 0
KME1 030432Z 00002KT 23/19 A3002 RMK A01 T02340186  RH  074%=      5-min Rain = 0
KME1 030433Z 02002KT 24/19 A3002 RMK A01 T02350185  RH  074%=      5-min Rain = 0
KME1 030434Z 01001KT 24/18 A3002 RMK A01 T02350182  RH  072%=      5-min Rain = 0
KME1 030435Z 03001KT 24/18 A3002 RMK A01 T02360181  RH  071%=      5-min Rain = 0
KME1 030436Z 02001KT 24/18 A3002 RMK A01 T02360183  RH  072%=      5-min Rain = 0
KME1 030437Z 05001KT 24/17 A3002 RMK A01 T02370172  RH  067%=      5-min Rain = 0
KME1 030438Z 05001KT 24/17 A3002 RMK A01 T02400174  RH  066%=      5-min Rain = 0
KME1 030439Z 08001KT 24/17 A3002 RMK A01 T02430174  RH  066%=      5-min Rain = 0
KME1 030440Z 08002KT 24/18 A3002 RMK A01 T02440184  RH  069%=      5-min Rain = 0
KME1 030441Z 05002KT 24/19 A3002 RMK A01 T02430190  RH  072%=      5-min Rain = 0
KME1 030442Z 03002KT 24/19 A3002 RMK A01 T02410192  RH  074%=      5-min Rain = 0
KME1 030443Z 02002KT 24/19 A3002 RMK A01 T02380191  RH  075%=      5-min Rain = 0
KME1 030444Z 00002KT 24/19 A3002 RMK A01 T02360187  RH  074%=      5-min Rain = 0
KME1 030445Z 35002KT 24/18 A3002 RMK A01 T02350183  RH  073%=      5-min Rain = 0
KME1 030446Z 32001KT 24/18 A3002 RMK A01 T02350184  RH  073%=      5-min Rain = 0
KME1 030447Z 32001KT 24/18 A3002 RMK A01 T02350183  RH  073%=      5-min Rain = 0
KME1 030448Z 33001KT 24/18 A3002 RMK A01 T02360183  RH  072%=      5-min Rain = 0
KME1 030449Z 35002KT 24/18 A3002 RMK A01 T02370177  RH  069%=      5-min Rain = 0
KME1 030450Z 34002KT 24/17 A3002 RMK A01 T02400171  RH  066%=      5-min Rain = 0
KME1 030451Z 32000KT 24/19 A3002 RMK A01 T02420186  RH  070%=      5-min Rain = 0
KME1 030452Z 00000KT 24/18 A3002 RMK A01 T02420178  RH  068%=      5-min Rain = 0
KME1 030453Z 00001KT 24/18 A3002 RMK A01 T02410178  RH  068%=      5-min Rain = 0
KME1 030454Z 36000KT 24/18 A3002 RMK A01 T02420180  RH  069%=      5-min Rain = 0
KME1 030455Z 00000KT 24/18 A3002 RMK A01 T02410180  RH  069%=      5-min Rain = 0
KME1 030456Z 32000KT 24/18 A3002 RMK A01 T02410181  RH  070%=      5-min Rain = 0
KME1 030457Z 30000KT 24/19 A3002 RMK A01 T02400185  RH  071%=      5-min Rain = 0
KME1 030458Z 00000KT 24/19 A3002 RMK A01 T02390186  RH  072%=      5-min Rain = 0
KME1 030459Z 00000KT 24/19 A3002 RMK A01 T02380187  RH  073%=      5-min Rain = 0

Page generated in 0.1195 seconds.